Latitude: N 50° 09' 49" Longitude: W 05° 11' 53" Elevation: 168m ASL

There are 17 visitors online

Adverts

<- Previous Day | Today | Next Day ->

All Data for 14 September 2018

Time
A - D
Temp
A - D
Dew Point
A - D
Humidity
A - D
Pressure
A - D
Wind
A - D
Wind Dir Gust
A - D
Rain Rate
A - D
Rain Total
00:00 11.7 9.1 84 1024.2 0.0 NW 0.0 0.0 0.0
00:01 11.6 9.0 84 1024.0 0.0 NW 0.0 0.0 0.0
00:02 11.6 9.0 84 1024.2 0.0 NW 0.0 0.0 0.0
00:03 11.6 9.0 84 1024.1 0.0 N 0.0 0.0 0.0
00:04 11.7 9.1 84 1024.1 0.7 N 0.7 0.0 0.0
00:05 11.7 9.1 84 1024.1 0.0 N 0.7 0.0 0.0
00:06 11.7 9.1 84 1024.2 0.0 NW 0.7 0.0 0.0
00:07 11.6 9.0 84 1024.2 0.0 SW 0.7 0.0 0.0
00:08 11.7 9.1 84 1024.3 0.0 NW 0.7 0.0 0.0
00:09 11.5 8.9 84 1024.3 0.0 NW 0.7 0.0 0.0
00:10 11.5 8.9 84 1024.3 0.0 NW 0.7 0.0 0.0
00:11 11.5 8.9 84 1024.2 0.0 NW 0.7 0.0 0.0
00:12 11.5 8.9 84 1024.2 0.0 NW 0.7 0.0 0.0
00:13 11.5 8.9 84 1024.2 0.0 NW 0.7 0.0 0.0
00:14 11.5 8.9 84 1024.2 0.0 NW 0.7 0.0 0.0
00:15 11.5 8.9 84 1024.1 0.0 NW 0.0 0.0 0.0
00:16 11.4 8.8 84 1024.2 0.0 NW 0.0 0.0 0.0
00:17 11.4 8.8 84 1024.0 0.0 NW 0.0 0.0 0.0
00:18 11.4 8.8 84 1024.3 0.0 NW 0.0 0.0 0.0
00:19 11.3 8.7 84 1024.2 0.0 NW 0.0 0.0 0.0
00:20 11.3 8.7 84 1024.2 0.0 NW 0.0 0.0 0.0
00:21 11.3 8.7 84 1024.1 0.0 NW 0.0 0.0 0.0
00:22 11.3 8.7 84 1024.1 0.0 NW 0.0 0.0 0.0
00:23 11.2 8.6 84 1024.1 0.0 NW 0.0 0.0 0.0
00:25 11.2 8.6 84 1024.1 0.0 NW 0.0 0.0 0.0
00:26 11.2 8.6 84 1024.1 0.0 NW 0.0 0.0 0.0
00:27 11.2 8.6 84 1024.1 0.0 NW 0.0 0.0 0.0
00:28 11.1 8.5 84 1024.2 0.0 NW 0.0 0.0 0.0
00:29 11.1 8.5 84 1024.2 0.0 NW 0.0 0.0 0.0
00:30 11.1 8.5 84 1024.2 0.0 NW 0.0 0.0 0.0
00:31 11.1 8.5 84 1024.3 0.0 NW 0.0 0.0 0.0
00:32 11.1 8.5 84 1024.2 0.0 NE 0.0 0.0 0.0
00:33 11.1 8.5 84 1024.1 0.0 NE 0.0 0.0 0.0
00:34 11.1 8.5 84 1024.1 0.0 NE 0.0 0.0 0.0
00:35 11.1 8.5 84 1024.1 0.0 NE 0.0 0.0 0.0
00:36 11.1 8.5 84 1024.2 0.0 N 0.0 0.0 0.0
00:37 11.1 8.5 84 1024.1 0.0 N 0.0 0.0 0.0
00:38 11.0 8.4 84 1024.1 0.0 N 0.0 0.0 0.0
00:39 11.0 8.4 84 1023.9 0.0 NE 0.0 0.0 0.0
00:40 11.0 8.4 84 1024.1 0.0 NE 0.0 0.0 0.0
00:41 11.0 8.4 84 1024.0 0.0 NE 0.0 0.0 0.0
00:42 11.0 8.4 84 1024.0 0.0 NE 0.0 0.0 0.0
00:43 11.0 8.4 84 1024.1 0.0 NE 0.0 0.0 0.0
00:44 11.0 8.4 84 1023.9 0.0 NE 0.0 0.0 0.0
00:45 11.0 8.4 84 1024.0 0.0 NE 0.0 0.0 0.0
00:46 11.0 8.6 85 1024.0 0.0 NE 0.0 0.0 0.0
00:47 11.0 8.4 84 1024.0 0.0 NE 0.0 0.0 0.0
00:48 11.0 8.4 84 1024.1 0.0 NE 0.0 0.0 0.0
00:49 11.0 8.4 84 1024.1 0.0 NE 0.0 0.0 0.0
00:50 11.0 8.4 84 1024.1 0.0 NW 0.0 0.0 0.0
00:51 11.0 8.4 84 1024.1 0.0 NW 0.0 0.0 0.0
00:52 11.0 8.4 84 1024.2 0.0 S 0.0 0.0 0.0
00:53 11.0 8.4 84 1024.2 0.0 S 0.0 0.0 0.0
00:54 10.9 8.5 85 1024.1 3.8 NW 3.8 0.0 0.0
00:55 10.9 8.5 85 1024.1 5.4 SW 5.4 0.0 0.0
00:56 10.9 8.5 85 1024.0 3.1 SW 5.4 0.0 0.0
00:57 10.9 8.5 85 1024.0 1.6 W 5.4 0.0 0.0
00:58 10.9 8.5 85 1023.9 1.6 W 5.4 0.0 0.0
00:59 10.9 8.5 85 1023.9 2.2 W 5.4 0.0 0.0
01:00 10.9 8.5 85 1024.1 1.6 W 5.4 0.0 0.0
01:01 10.9 8.5 85 1024.1 1.6 W 5.4 0.0 0.0
01:02 10.9 8.5 85 1023.9 1.6 W 5.4 0.0 0.0
01:03 10.9 8.5 85 1024.0 3.1 W 5.4 0.0 0.0
01:04 10.9 8.5 85 1023.9 4.5 W 5.4 0.0 0.0
01:05 10.9 8.5 85 1023.9 2.2 W 5.4 0.0 0.0
01:06 10.9 8.5 85 1024.0 1.6 SW 4.5 0.0 0.0
01:07 11.0 8.6 85 1024.0 1.6 SW 4.5 0.0 0.0
01:08 11.0 8.6 85 1024.0 0.0 W 4.5 0.0 0.0
01:09 11.0 8.6 85 1023.9 0.0 W 4.5 0.0 0.0
01:10 11.0 8.6 85 1023.9 0.0 W 4.5 0.0 0.0
01:11 11.0 8.6 85 1024.0 0.0 W 4.5 0.0 0.0
01:12 11.0 8.6 85 1024.0 0.0 W 4.5 0.0 0.0
01:13 11.0 8.6 85 1024.0 0.0 SW 4.5 0.0 0.0
01:14 11.0 8.8 86 1023.9 0.0 SW 2.2 0.0 0.0
01:15 11.0 8.8 86 1023.9 0.0 SW 1.6 0.0 0.0
01:16 11.0 8.8 86 1024.0 0.0 SW 1.6 0.0 0.0
01:17 11.1 8.8 86 1024.1 0.0 SW 0.0 0.0 0.0
01:18 11.1 8.8 86 1024.0 0.0 SW 0.0 0.0 0.0
01:19 11.1 8.8 86 1023.9 0.0 NE 0.0 0.0 0.0
01:20 11.0 8.8 86 1023.8 0.0 NE 0.0 0.0 0.0
01:21 11.0 8.8 86 1024.0 0.0 NE 0.0 0.0 0.0
01:22 11.1 8.8 86 1023.9 0.0 NE 0.0 0.0 0.0
01:23 11.0 8.8 86 1024.0 0.0 NE 0.0 0.0 0.0
01:24 11.0 8.8 86 1024.0 0.0 NE 0.0 0.0 0.0
01:25 11.0 8.8 86 1023.9 0.0 SE 0.0 0.0 0.0
01:26 11.0 8.8 86 1024.0 0.0 SE 0.0 0.0 0.0
01:27 11.0 8.8 86 1023.9 0.0 NW 0.0 0.0 0.0
01:28 11.0 8.8 86 1024.0 0.0 SE 0.0 0.0 0.0
01:30 11.0 8.8 86 1024.1 0.0 E 0.0 0.0 0.0
01:31 10.9 8.7 86 1023.9 0.0 SE 0.0 0.0 0.0
01:32 10.9 8.7 86 1024.1 0.0 SE 0.0 0.0 0.0
01:33 10.9 8.5 85 1024.1 0.0 SE 0.0 0.0 0.0
01:34 10.9 8.5 85 1024.0 0.0 SE 0.0 0.0 0.0
01:35 10.9 8.7 86 1023.9 0.0 SE 0.0 0.0 0.0
01:36 10.9 8.7 86 1024.0 0.0 SE 0.0 0.0 0.0
01:37 10.8 8.6 86 1024.0 0.0 N 0.0 0.0 0.0
01:38 10.9 8.7 86 1024.0 0.0 N 0.0 0.0 0.0
01:39 10.8 8.6 86 1023.8 0.0 NE 0.0 0.0 0.0
01:40 10.8 8.6 86 1023.9 0.0 SE 0.0 0.0 0.0
01:41 10.8 8.6 86 1023.8 0.0 NE 0.0 0.0 0.0
01:42 10.8 8.4 85 1024.0 0.0 NE 0.0 0.0 0.0
01:43 10.8 8.4 85 1024.0 0.0 E 0.0 0.0 0.0
01:44 10.8 8.4 85 1023.9 0.0 NE 0.0 0.0 0.0
01:45 10.7 8.3 85 1024.0 0.0 NE 0.0 0.0 0.0
01:46 10.7 8.3 85 1024.1 0.0 NE 0.0 0.0 0.0
01:47 10.7 8.3 85 1024.0 0.0 NE 0.0 0.0 0.0
01:48 10.7 8.3 85 1024.0 0.0 NE 0.0 0.0 0.0
01:49 10.6 8.2 85 1024.0 0.0 NE 0.0 0.0 0.0
01:50 10.6 8.2 85 1024.0 0.0 NE 0.0 0.0 0.0
01:51 10.6 8.2 85 1023.9 0.0 NE 0.0 0.0 0.0
01:52 10.6 8.2 85 1023.8 0.0 E 0.0 0.0 0.0
01:53 10.6 8.2 85 1023.8 0.0 E 0.0 0.0 0.0
01:54 10.6 8.2 85 1023.9 0.0 E 0.0 0.0 0.0
01:55 10.6 8.2 85 1023.9 0.0 E 0.0 0.0 0.0
01:56 10.5 8.1 85 1023.8 0.0 E 0.0 0.0 0.0
01:57 10.5 8.1 85 1023.7 0.0 E 0.0 0.0 0.0
01:58 10.5 8.1 85 1023.8 0.0 E 0.0 0.0 0.0
01:59 10.5 8.3 86 1023.8 0.0 E 0.0 0.0 0.0
02:00 10.5 8.1 85 1023.7 0.0 E 0.0 0.0 0.0
02:01 10.4 8.2 86 1023.8 0.0 E 0.0 0.0 0.0
02:02 10.4 8.0 85 1023.7 0.0 E 0.0 0.0 0.0
02:03 10.4 8.0 85 1023.6 0.0 E 0.0 0.0 0.0
02:04 10.4 8.0 85 1023.6 0.0 E 0.0 0.0 0.0
02:05 10.4 8.0 85 1023.6 0.0 E 0.0 0.0 0.0
02:06 10.4 8.0 85 1023.7 0.0 E 0.0 0.0 0.0
02:07 10.3 7.9 85 1023.5 0.0 E 0.0 0.0 0.0
02:08 10.3 8.1 86 1023.5 0.0 NE 0.0 0.0 0.0
02:09 10.3 8.1 86 1023.5 0.0 E 0.0 0.0 0.0
02:10 10.3 8.1 86 1023.6 0.0 E 0.0 0.0 0.0
02:11 10.3 8.1 86 1023.7 0.0 E 0.0 0.0 0.0
02:12 10.3 8.1 86 1023.8 0.0 E 0.0 0.0 0.0
02:13 10.3 8.1 86 1023.8 0.0 E 0.0 0.0 0.0
02:14 10.3 8.1 86 1023.7 0.0 N 0.0 0.0 0.0
02:15 10.2 8.0 86 1023.7 0.0 N 0.0 0.0 0.0
02:16 10.2 8.0 86 1023.7 0.0 N 0.0 0.0 0.0
02:17 10.2 8.0 86 1023.7 0.0 N 0.0 0.0 0.0
02:18 10.2 8.0 86 1023.7 0.0 N 0.0 0.0 0.0
02:19 10.2 8.0 86 1023.6 0.0 N 0.0 0.0 0.0
02:20 10.1 7.9 86 1023.5 0.0 N 0.0 0.0 0.0
02:21 10.1 7.9 86 1023.7 0.0 N 0.0 0.0 0.0
02:22 10.1 7.9 86 1023.8 0.0 N 0.0 0.0 0.0
02:23 10.1 7.9 86 1023.6 0.0 N 0.0 0.0 0.0
02:24 10.1 7.9 86 1023.8 0.0 N 0.0 0.0 0.0
02:25 10.1 7.9 86 1023.6 0.0 N 0.0 0.0 0.0
02:26 10.1 7.9 86 1023.5 0.0 NW 0.0 0.0 0.0
02:27 10.1 7.9 86 1023.6 0.0 SW 0.0 0.0 0.0
02:28 10.1 7.9 86 1023.8 0.0 SW 0.0 0.0 0.0
02:29 10.1 7.9 86 1023.8 0.0 SW 0.0 0.0 0.0
02:30 10.1 7.9 86 1023.8 0.0 SW 0.0 0.0 0.0
02:31 10.1 7.9 86 1023.7 0.0 SW 0.0 0.0 0.0
02:32 10.1 7.9 86 1023.5 0.0 NE 0.0 0.0 0.0
02:33 10.1 7.9 86 1023.6 0.0 N 0.0 0.0 0.0
02:34 10.1 7.9 86 1023.5 0.0 N 0.0 0.0 0.0
02:35 10.1 7.9 86 1023.5 0.0 N 0.0 0.0 0.0
02:36 10.1 7.9 86 1023.6 0.0 N 0.0 0.0 0.0
02:37 10.1 8.0 87 1023.4 0.0 NE 0.0 0.0 0.0
02:38 10.1 8.0 87 1023.5 0.0 NE 0.0 0.0 0.0
02:39 10.1 8.0 87 1023.5 0.0 SE 0.0 0.0 0.0
02:40 10.1 8.0 87 1023.5 0.0 N 0.0 0.0 0.0
02:41 10.1 8.0 87 1023.5 0.0 N 0.0 0.0 0.0
02:42 10.1 8.0 87 1023.5 0.0 SE 0.0 0.0 0.0
02:43 10.2 8.1 87 1023.5 0.7 E 0.7 0.0 0.0
02:44 10.2 8.1 87 1023.4 0.0 E 0.7 0.0 0.0
02:45 10.2 8.1 87 1023.6 0.0 SE 0.7 0.0 0.0
02:46 10.2 8.1 87 1023.5 0.0 ESE 0.7 0.0 0.0
02:47 10.2 8.1 87 1023.4 0.0 ESE 0.7 0.0 0.0
02:48 10.2 8.1 87 1023.5 0.0 E 0.7 0.0 0.0
02:49 10.2 8.1 87 1023.5 0.0 E 0.7 0.0 0.0
02:50 10.2 8.1 87 1023.6 0.0 E 0.7 0.0 0.0
02:51 10.2 8.1 87 1023.7 0.0 E 0.7 0.0 0.0
02:52 10.2 8.1 87 1023.4 0.0 E 0.7 0.0 0.0
02:53 10.2 8.3 88 1023.7 0.0 E 0.0 0.0 0.0
02:54 10.2 8.1 87 1023.5 0.0 E 0.0 0.0 0.0
02:55 10.2 8.3 88 1023.6 0.0 E 0.0 0.0 0.0
02:56 10.3 8.4 88 1023.5 0.0 E 0.0 0.0 0.0
02:57 10.3 8.4 88 1023.5 0.0 E 0.0 0.0 0.0
02:58 10.3 8.4 88 1023.4 0.0 E 0.0 0.0 0.0
02:59 10.3 8.4 88 1023.4 0.0 E 0.0 0.0 0.0
03:00 10.3 8.4 88 1023.5 0.0 E 0.0 0.0 0.0
03:01 10.3 8.4 88 1023.4 0.0 N 0.0 0.0 0.0
03:02 10.3 8.4 88 1023.4 0.0 N 0.0 0.0 0.0
03:03 10.3 8.4 88 1023.4 0.0 N 0.0 0.0 0.0
03:04 10.3 8.4 88 1023.4 0.0 N 0.0 0.0 0.0
03:05 10.3 8.4 88 1023.5 0.0 N 0.0 0.0 0.0
03:06 10.3 8.4 88 1023.4 0.0 N 0.0 0.0 0.0
03:07 10.4 8.5 88 1023.4 0.0 SE 0.0 0.0 0.0
03:08 10.4 8.5 88 1023.3 0.0 SE 0.0 0.0 0.0
03:09 10.4 8.5 88 1023.3 0.0 SE 0.0 0.0 0.0
03:10 10.4 8.5 88 1023.3 0.0 SE 0.0 0.0 0.0
03:11 10.4 8.5 88 1023.2 0.0 SE 0.0 0.0 0.0
03:12 10.5 8.6 88 1023.3 0.0 SE 0.0 0.0 0.0
03:13 10.5 8.6 88 1023.2 0.0 SE 0.0 0.0 0.0
03:14 10.4 8.5 88 1023.2 0.0 SE 0.0 0.0 0.0
03:15 10.5 8.8 89 1023.2 0.0 SE 0.0 0.0 0.0
03:16 10.5 8.8 89 1023.2 0.0 SE 0.0 0.0 0.0
03:17 10.5 8.8 89 1023.1 0.0 SE 0.0 0.0 0.0
03:18 10.5 8.8 89 1023.0 0.0 SE 0.0 0.0 0.0
03:19 10.6 8.9 89 1023.0 0.0 SE 0.0 0.0 0.0
03:20 10.6 8.9 89 1023.0 0.0 SE 0.0 0.0 0.0
03:21 10.6 8.9 89 1022.9 0.0 E 0.0 0.0 0.0
03:22 10.6 8.9 89 1023.1 0.0 NE 0.0 0.0 0.0
03:23 10.6 8.9 89 1023.2 2.2 SE 2.2 0.0 0.0
03:24 10.6 8.9 89 1023.1 2.2 S 2.2 0.0 0.0
03:25 10.7 9.0 89 1023.0 1.6 SE 2.2 0.0 0.0
03:26 10.7 9.0 89 1023.2 0.0 SE 2.2 0.0 0.0
03:27 10.7 9.0 89 1023.1 0.0 S 2.2 0.0 0.0
03:28 10.7 9.0 89 1023.1 0.0 SE 2.2 0.0 0.0
03:29 10.7 9.0 89 1023.1 0.0 SE 2.2 0.0 0.0
03:30 10.7 9.0 89 1023.1 0.0 SE 2.2 0.0 0.0
03:31 10.8 9.1 89 1023.0 0.0 E 2.2 0.0 0.0
03:32 10.8 9.1 89 1022.9 0.0 E 2.2 0.0 0.0
03:33 10.8 9.1 89 1022.9 0.0 E 2.2 0.0 0.0
03:34 10.8 9.1 89 1022.9 0.0 E 1.6 0.0 0.0
03:35 10.8 9.1 89 1022.9 0.0 SE 0.0 0.0 0.0
03:36 10.8 9.1 89 1022.9 0.0 SE 0.0 0.0 0.0
03:37 10.8 9.1 89 1023.0 0.0 SE 0.0 0.0 0.0
03:38 10.8 9.1 89 1022.9 0.0 N 0.0 0.0 0.0
03:39 10.8 9.1 89 1022.9 0.0 N 0.0 0.0 0.0
03:40 10.8 9.1 89 1022.8 0.0 N 0.0 0.0 0.0
03:41 10.8 9.1 89 1022.9 0.0 E 0.0 0.0 0.0
03:42 10.8 9.1 89 1022.9 0.0 E 0.0 0.0 0.0
03:43 10.8 9.1 89 1022.9 0.0 E 0.0 0.0 0.0
03:44 10.8 9.1 89 1022.8 0.0 E 0.0 0.0 0.0
03:45 10.8 9.1 89 1022.9 0.0 E 0.0 0.0 0.0
03:46 10.8 9.1 89 1022.9 0.0 E 0.0 0.0 0.0
03:47 10.8 9.1 89 1022.8 0.0 NE 0.0 0.0 0.0
03:48 10.8 9.2 90 1022.8 0.0 NE 0.0 0.0 0.0
03:49 10.8 9.1 89 1022.8 0.7 SE 0.7 0.0 0.0
03:50 10.8 9.1 89 1022.8 0.0 SE 0.7 0.0 0.0
03:51 10.9 9.2 89 1022.7 1.6 SE 1.6 0.0 0.0
03:52 10.8 9.1 89 1022.7 0.0 SE 1.6 0.0 0.0
03:53 10.9 9.2 89 1022.8 0.0 SE 1.6 0.0 0.0
03:54 10.9 9.3 90 1022.8 0.7 SE 1.6 0.0 0.0
03:55 10.9 9.2 89 1022.7 0.0 SE 1.6 0.0 0.0
03:56 10.9 9.3 90 1022.8 0.0 SE 1.6 0.0 0.0
03:57 10.9 9.2 89 1022.8 0.0 SE 1.6 0.0 0.0
03:58 10.9 9.2 89 1022.8 0.0 SE 1.6 0.0 0.0
03:59 10.9 9.2 89 1022.7 0.0 NE 1.6 0.0 0.0
04:00 10.9 9.3 90 1022.7 0.0 NE 1.6 0.0 0.0
04:01 10.9 9.3 90 1022.5 0.0 NE 1.6 0.0 0.0
04:02 10.9 9.2 89 1022.8 0.0 NE 0.7 0.0 0.0
04:04 10.9 9.2 89 1022.8 0.0 NE 0.7 0.0 0.0
04:05 10.9 9.2 89 1022.8 0.0 NE 0.0 0.0 0.0
04:06 10.9 9.2 89 1022.7 0.0 NE 0.0 0.0 0.0
04:07 10.9 9.2 89 1022.8 0.0 NE 0.0 0.0 0.0
04:08 10.9 9.3 90 1022.8 0.0 NE 0.0 0.0 0.0
04:09 10.9 9.3 90 1022.8 0.0 W 0.0 0.0 0.0
04:10 10.9 9.3 90 1022.8 0.0 W 0.0 0.0 0.0
04:11 10.9 9.3 90 1022.7 0.0 W 0.0 0.0 0.0
04:12 10.9 9.2 89 1022.7 0.0 W 0.0 0.0 0.0
04:13 10.9 9.2 89 1022.7 0.0 W 0.0 0.0 0.0
04:14 10.9 9.2 89 1022.7 0.0 W 0.0 0.0 0.0
04:15 10.9 9.2 89 1022.6 0.0 N 0.0 0.0 0.0
04:16 10.9 9.2 89 1022.6 0.0 W 0.0 0.0 0.0
04:17 10.9 9.3 90 1022.7 0.0 W 0.0 0.0 0.0
04:18 10.9 9.2 89 1022.6 0.0 W 0.0 0.0 0.0
04:19 10.9 9.2 89 1022.8 0.0 W 0.0 0.0 0.0
04:21 10.9 9.2 89 1022.7 0.0 SW 0.0 0.0 0.0
04:22 10.9 9.3 90 1022.6 0.0 SW 0.0 0.0 0.0
04:23 10.9 9.2 89 1022.5 0.0 SW 0.0 0.0 0.0
04:24 10.9 9.3 90 1022.6 0.0 SW 0.0 0.0 0.0
04:25 10.9 9.3 90 1022.4 0.0 SW 0.0 0.0 0.0
04:26 10.9 9.2 89 1022.5 0.0 SW 0.0 0.0 0.0
04:27 10.9 9.3 90 1022.5 0.0 SW 0.0 0.0 0.0
04:28 10.9 9.3 90 1022.6 0.0 SW 0.0 0.0 0.0
04:29 10.9 9.3 90 1022.6 0.0 SW 0.0 0.0 0.0
04:30 10.9 9.3 90 1022.5 0.0 SW 0.0 0.0 0.0
04:31 10.9 9.2 89 1022.5 0.0 SW 0.0 0.0 0.0
04:32 11.0 9.4 90 1022.5 0.0 SW 0.0 0.0 0.0
04:33 11.0 9.4 90 1022.6 0.0 SW 0.0 0.0 0.0
04:34 10.9 9.3 90 1022.5 0.0 SW 0.0 0.0 0.0
04:35 10.9 9.3 90 1022.6 0.0 SW 0.0 0.0 0.0
04:36 10.9 9.3 90 1022.6 0.0 SW 0.0 0.0 0.0
04:37 11.0 9.4 90 1022.5 0.0 SW 0.0 0.0 0.0
04:38 11.0 9.4 90 1022.4 0.0 SW 0.0 0.0 0.0
04:40 11.0 9.4 90 1022.6 0.0 E 0.0 0.0 0.0
04:41 11.0 9.4 90 1022.4 0.0 E 0.0 0.0 0.0
04:42 11.0 9.4 90 1022.4 0.0 E 0.0 0.0 0.0
04:43 11.0 9.4 90 1022.6 0.0 E 0.0 0.0 0.0
04:44 11.0 9.4 90 1022.4 0.0 E 0.0 0.0 0.0
04:45 11.0 9.4 90 1022.6 0.0 E 0.0 0.0 0.0
04:46 11.0 9.4 90 1022.5 0.0 E 0.0 0.0 0.0
04:47 11.0 9.4 90 1022.5 0.0 E 0.0 0.0 0.0
04:48 11.0 9.4 90 1022.4 0.0 E 0.0 0.0 0.0
04:49 11.0 9.4 90 1022.5 0.0 E 0.0 0.0 0.0
04:50 11.0 9.4 90 1022.4 0.0 E 0.0 0.0 0.0
04:51 11.0 9.4 90 1022.4 0.0 NE 0.0 0.0 0.0
04:52 11.0 9.4 90 1022.5 0.0 NE 0.0 0.0 0.0
04:53 11.0 9.4 90 1022.5 0.0 NE 0.0 0.0 0.0
04:54 11.0 9.4 90 1022.6 0.0 NE 0.0 0.0 0.0
04:55 11.0 9.4 90 1022.4 0.0 NE 0.0 0.0 0.0
04:56 11.0 9.4 90 1022.4 0.0 NE 0.0 0.0 0.0
04:57 11.0 9.4 90 1022.3 0.0 NE 0.0 0.0 0.0
04:59 11.0 9.4 90 1022.4 0.0 NE 0.0 0.0 0.0
05:00 11.1 9.5 90 1022.6 0.0 NE 0.0 0.0 0.0
05:01 11.0 9.4 90 1022.5 0.0 E 0.0 0.0 0.0
05:02 11.1 9.5 90 1022.5 0.0 E 0.0 0.0 0.0
05:03 11.1 9.5 90 1022.4 0.0 E 0.0 0.0 0.0
05:04 11.1 9.5 90 1022.4 0.0 E 0.0 0.0 0.0
05:05 11.1 9.5 90 1022.4 0.0 E 0.0 0.0 0.0
05:06 11.1 9.5 90 1022.4 0.0 SE 0.0 0.0 0.0
05:07 11.1 9.5 90 1022.3 0.0 SE 0.0 0.0 0.0
05:08 11.1 9.5 90 1022.5 0.0 SE 0.0 0.0 0.0
05:09 11.1 9.5 90 1022.5 0.0 SE 0.0 0.0 0.0
05:10 11.1 9.5 90 1022.3 0.0 SE 0.0 0.0 0.0
05:11 11.1 9.5 90 1022.3 0.0 SE 0.0 0.0 0.0
05:12 11.1 9.5 90 1022.4 0.0 SE 0.0 0.0 0.0
05:13 11.1 9.5 90 1022.4 0.0 SE 0.0 0.0 0.0
05:14 11.1 9.5 90 1022.6 0.0 SE 0.0 0.0 0.0
05:15 11.1 9.5 90 1022.5 0.0 SE 0.0 0.0 0.0
05:16 11.2 9.6 90 1022.6 0.0 SE 0.0 0.0 0.0
05:17 11.2 9.6 90 1022.6 0.0 SE 0.0 0.0 0.0
05:18 11.2 9.6 90 1022.7 0.0 SE 0.0 0.0 0.0
05:19 11.2 9.6 90 1022.8 0.0 SE 0.0 0.0 0.0
05:20 11.2 9.6 90 1022.6 0.0 SE 0.0 0.0 0.0
05:21 11.2 9.6 90 1022.5 0.0 SE 0.0 0.0 0.0
05:22 11.2 9.6 90 1022.5 0.0 SE 0.0 0.0 0.0
05:23 11.2 9.6 90 1022.6 0.0 SE 0.0 0.0 0.0
05:24 11.2 9.6 90 1022.7 0.0 SE 0.0 0.0 0.0
05:25 11.2 9.6 90 1022.5 0.0 SE 0.0 0.0 0.0
05:26 11.2 9.6 90 1022.5 0.0 SE 0.0 0.0 0.0
05:27 11.2 9.6 90 1022.7 0.0 SE 0.0 0.0 0.0
05:28 11.2 9.6 90 1022.5 0.0 SE 0.0 0.0 0.0
05:29 11.3 9.7 90 1022.5 1.6 SSE 1.6 0.0 0.0
05:30 11.3 9.7 90 1022.6 0.7 SE 1.6 0.0 0.0
05:31 11.3 9.7 90 1022.4 0.7 SE 1.6 0.0 0.0
05:32 11.3 9.7 90 1022.6 1.6 S 1.6 0.0 0.0
05:33 11.3 9.7 90 1022.6 3.8 W 3.8 0.0 0.0
05:34 11.3 9.7 90 1022.8 12.1 NW 12.1 0.0 0.0
05:35 11.3 9.7 90 1022.6 13.6 W 13.6 0.8 0.1
05:36 11.4 9.8 90 1022.7 13.6 NW 13.6 0.8 0.1
05:38 11.4 10.0 91 1022.8 8.3 SW 13.6 0.8 0.1
05:39 11.4 10.0 91 1022.7 10.7 SW 13.6 0.8 0.1
05:40 11.5 10.1 91 1022.7 6.9 W 13.6 0.0 0.1
05:41 11.5 10.1 91 1022.7 10.7 W 13.6 0.0 0.1
05:42 11.5 10.1 91 1022.8 6.9 SSW 13.6 0.0 0.1
05:43 11.5 10.1 91 1022.6 8.3 SW 13.6 0.0 0.1
05:44 11.7 10.3 91 1022.8 6.9 SW 13.6 0.0 0.1
05:45 11.6 10.2 91 1022.8 6.0 SW 13.6 0.0 0.1
05:46 11.5 10.1 91 1022.8 9.8 SW 13.6 0.0 0.1
05:47 11.7 10.3 91 1022.6 7.6 W 11.4 0.0 0.1
05:48 11.6 10.2 91 1022.7 5.4 N 11.4 0.0 0.1
05:49 11.6 10.2 91 1022.7 5.4 SW 11.4 0.0 0.1
05:50 11.6 10.2 91 1022.7 6.9 W 11.4 0.0 0.1
05:51 11.6 10.2 91 1022.6 6.9 W 10.7 0.8 0.1
05:52 11.6 10.2 91 1022.7 6.0 SW 9.8 0.8 0.1
05:53 11.6 10.2 91 1022.6 5.4 NW 9.8 0.8 0.1
05:54 11.6 10.2 91 1022.7 4.5 S 9.8 0.8 0.1
05:55 11.6 10.3 92 1022.7 4.5 SW 9.8 0.8 0.1
05:57 11.6 10.3 92 1022.5 4.5 SW 6.9 0.0 0.1
05:58 11.6 10.3 92 1022.3 4.5 S 6.9 0.0 0.1
05:59 11.6 10.3 92 1022.5 6.9 SW 6.9 0.0 0.1
06:00 11.6 10.3 92 1022.4 5.4 WSW 6.9 0.0 0.1
06:01 11.6 10.3 92 1022.5 4.5 W 6.9 0.0 0.1
06:02 11.5 10.2 92 1022.3 3.8 S 6.9 0.0 0.1
06:03 11.5 10.2 92 1022.5 3.8 S 6.9 0.0 0.1
06:04 11.5 10.2 92 1022.4 3.8 SW 6.9 0.0 0.1
06:05 11.5 10.2 92 1022.4 3.8 SW 6.9 0.0 0.1
06:06 11.5 10.2 92 1022.4 3.1 SW 6.9 0.0 0.1
06:07 11.5 10.2 92 1022.3 3.1 SW 6.9 0.0 0.1
06:08 11.5 10.2 92 1022.4 3.8 SW 6.9 0.0 0.1
06:09 11.5 10.2 92 1022.4 3.1 NW 6.9 0.0 0.1
06:10 11.5 10.2 92 1022.3 2.2 WNW 5.4 0.0 0.1
06:11 11.5 10.2 92 1022.4 3.1 NW 4.5 0.0 0.1
06:12 11.5 10.2 92 1022.4 1.6 NW 3.8 0.0 0.1
06:13 11.5 10.2 92 1022.4 2.2 NW 3.8 0.0 0.1
06:14 11.5 10.2 92 1022.3 1.6 W 3.8 0.0 0.1
06:16 11.5 10.2 92 1022.5 1.6 W 3.8 0.0 0.1
06:17 11.5 10.2 92 1022.5 2.2 WSW 3.8 0.0 0.1
06:18 11.4 10.1 92 1022.5 2.2 W 3.8 0.0 0.1
06:19 11.5 10.2 92 1022.5 1.6 SW 3.8 0.0 0.1
06:20 11.4 10.1 92 1022.5 1.6 W 3.1 0.0 0.1
06:21 11.4 10.0 91 1022.4 1.6 S 2.2 0.0 0.1
06:22 11.4 10.0 91 1022.4 1.6 S 2.2 0.0 0.1
06:23 11.4 10.0 91 1022.3 2.2 SE 2.2 0.0 0.1
06:24 11.4 10.0 91 1022.3 1.6 S 2.2 0.0 0.1
06:25 11.4 10.1 92 1022.4 1.6 SE 2.2 0.0 0.1
06:26 11.4 10.0 91 1022.3 1.6 SE 2.2 0.0 0.1
06:27 11.4 10.1 92 1022.3 1.6 SE 2.2 0.0 0.1
06:28 11.4 10.0 91 1022.3 2.2 SE 2.2 0.0 0.1
06:30 11.3 9.9 91 1022.3 1.6 SE 2.2 0.0 0.1
06:31 11.3 9.9 91 1022.3 0.7 SE 2.2 0.0 0.1
06:32 11.3 9.9 91 1022.3 0.7 SE 2.2 0.0 0.1
06:33 11.3 9.9 91 1022.2 0.0 SE 2.2 0.0 0.1
06:34 11.3 10.1 92 1022.3 0.7 SW 2.2 0.0 0.1
06:35 11.3 10.1 92 1022.1 1.6 SW 2.2 0.0 0.1
06:36 11.3 10.1 92 1022.1 1.6 SW 2.2 0.0 0.1
06:37 11.3 9.9 91 1022.3 0.0 SW 2.2 0.0 0.1
06:38 11.3 9.9 91 1022.3 0.0 SW 2.2 0.0 0.1
06:39 11.3 9.9 91 1022.3 0.7 SW 1.6 0.0 0.1
06:40 11.3 10.1 92 1022.3 0.0 SW 1.6 0.0 0.1
06:41 11.3 9.9 91 1022.3 0.7 SE 1.6 0.0 0.1
06:42 11.3 10.1 92 1022.3 0.0 SE 1.6 0.0 0.1
06:43 11.3 9.9 91 1022.3 0.0 SE 1.6 0.0 0.1
06:45 11.2 9.8 91 1022.5 0.7 S 1.6 0.0 0.1
06:46 11.2 9.8 91 1022.4 0.7 S 1.6 0.0 0.1
06:47 11.2 9.8 91 1022.5 1.6 S 1.6 0.0 0.1
06:48 11.2 10.0 92 1022.5 1.6 S 1.6 0.0 0.1
06:49 11.2 9.8 91 1022.5 0.7 S 1.6 0.0 0.1
06:50 11.2 9.8 91 1022.5 0.7 S 1.6 0.0 0.1
06:51 11.2 9.8 91 1022.5 1.6 S 1.6 0.0 0.1
06:52 11.2 9.8 91 1022.6 0.0 S 1.6 0.0 0.1
06:53 11.2 10.0 92 1022.4 0.7 S 1.6 0.0 0.1
06:54 11.2 10.0 92 1022.6 0.7 SE 1.6 0.0 0.1
06:55 11.2 10.0 92 1022.6 0.0 SE 1.6 0.0 0.1
06:56 11.2 9.8 91 1022.5 0.7 S 1.6 0.0 0.1
06:57 11.2 10.0 92 1022.4 0.0 S 1.6 0.0 0.1
06:59 11.2 10.0 92 1022.4 0.0 S 1.6 0.0 0.1
07:00 11.2 10.0 92 1022.5 0.0 S 1.6 0.0 0.1
07:01 11.2 10.0 92 1022.6 0.0 S 0.7 0.0 0.1
07:02 11.2 10.0 92 1022.5 0.0 S 0.7 0.0 0.1
07:03 11.2 10.0 92 1022.4 0.0 S 0.7 0.0 0.1
07:04 11.2 10.0 92 1022.5 0.0 S 0.7 0.0 0.1
07:05 11.2 10.0 92 1022.3 0.0 S 0.7 0.0 0.1
07:06 11.2 10.0 92 1022.4 0.0 S 0.7 0.0 0.1
07:07 11.2 10.0 92 1022.4 1.6 SE 1.6 0.0 0.1
07:08 11.2 10.0 92 1022.4 1.6 SE 1.6 0.0 0.1
07:09 11.2 10.0 92 1022.3 1.6 SE 1.6 0.0 0.1
07:10 11.1 9.9 92 1022.3 0.7 SE 1.6 0.0 0.1
07:11 11.1 9.9 92 1022.4 1.6 SE 1.6 0.0 0.1
07:12 11.2 10.0 92 1022.3 1.6 SE 1.6 0.0 0.1
07:13 11.2 10.0 92 1022.3 1.6 SE 1.6 0.0 0.1
07:14 11.1 9.9 92 1022.4 0.7 SE 1.6 0.0 0.1
07:15 11.1 9.9 92 1022.3 0.0 SE 1.6 0.0 0.1
07:17 11.1 9.9 92 1022.5 0.0 SE 1.6 0.0 0.1
07:18 11.1 9.9 92 1022.4 0.0 SE 1.6 0.0 0.1
07:19 11.1 9.9 92 1022.3 0.0 SE 1.6 0.0 0.1
07:20 11.1 9.9 92 1022.4 0.0 SE 1.6 0.0 0.1
07:21 11.1 9.9 92 1022.4 0.0 SE 1.6 0.0 0.1
07:22 11.1 9.9 92 1022.4 0.0 SE 1.6 0.0 0.1
07:23 11.1 9.9 92 1022.3 0.0 N 0.7 0.0 0.1
07:24 11.1 9.9 92 1022.4 0.0 NE 0.0 0.0 0.1
07:25 11.1 9.9 92 1022.3 0.0 NE 0.0 0.0 0.1
07:26 11.1 9.9 92 1022.4 0.0 NE 0.0 0.0 0.1
07:27 11.1 9.9 92 1022.4 0.0 NE 0.0 0.0 0.1
07:28 11.1 9.9 92 1022.4 0.0 NE 0.0 0.0 0.1
07:30 11.1 9.9 92 1022.3 0.0 NE 0.0 0.0 0.1
07:31 11.1 9.9 92 1022.3 0.0 NE 0.0 0.0 0.1
07:32 11.1 9.9 92 1022.3 0.0 NE 0.0 0.0 0.1
07:33 11.1 9.9 92 1022.3 0.0 NE 0.0 0.0 0.1
07:34 11.1 9.9 92 1022.3 0.0 NE 0.0 0.0 0.1
07:35 11.1 9.9 92 1022.4 0.7 SE 0.7 0.0 0.1
07:36 11.1 9.9 92 1022.4 0.7 SE 0.7 0.0 0.1
07:37 11.2 10.0 92 1022.3 0.0 SE 0.7 0.0 0.1
07:38 11.2 10.0 92 1022.5 0.0 N 0.7 0.0 0.1
07:39 11.2 10.0 92 1022.3 0.7 E 0.7 0.0 0.1
07:40 11.2 10.0 92 1022.5 0.7 E 0.7 0.0 0.1
07:41 11.2 10.0 92 1022.5 0.0 NW 0.7 0.0 0.1
07:42 11.2 10.0 92 1022.5 0.0 NW 0.7 0.0 0.1
07:43 11.2 10.0 92 1022.5 0.0 NW 0.7 0.0 0.1
07:45 11.2 10.0 92 1022.5 0.0 NW 0.7 0.0 0.1
07:46 11.2 10.0 92 1022.5 0.0 NW 0.7 0.0 0.1
07:47 11.2 10.0 92 1022.6 0.0 NW 0.7 0.0 0.1
07:48 11.2 10.0 92 1022.5 0.0 NW 0.7 0.0 0.1
07:49 11.2 10.0 92 1022.5 0.0 NW 0.7 0.0 0.1
07:50 11.3 10.1 92 1022.6 0.0 NW 0.0 0.0 0.1
07:51 11.3 10.1 92 1022.6 0.0 NW 0.0 0.0 0.1
07:52 11.3 10.1 92 1022.7 0.0 NW 0.0 0.0 0.1
07:53 11.3 10.1 92 1022.6 0.0 W 0.0 0.0 0.1
07:54 11.3 10.2 93 1022.6 0.7 W 0.7 0.0 0.1
07:55 11.3 10.1 92 1022.5 0.0 W 0.7 0.0 0.1
07:56 11.3 10.2 93 1022.6 0.0 W 0.7 0.0 0.1
07:57 11.3 10.2 93 1022.6 0.0 W 0.7 0.0 0.1
07:59 11.4 10.3 93 1022.7 0.0 W 0.7 0.0 0.1
08:00 11.4 10.3 93 1022.5 0.0 W 0.7 0.0 0.1
08:01 11.4 10.3 93 1022.7 0.0 W 0.7 0.0 0.1
08:02 11.4 10.3 93 1022.6 0.0 SW 0.7 0.0 0.1
08:03 11.4 10.3 93 1022.6 0.0 SW 0.7 0.0 0.1
08:04 11.4 10.3 93 1022.6 0.0 SW 0.7 0.0 0.1
08:05 11.5 10.4 93 1022.6 0.0 SW 0.0 0.0 0.1
08:06 11.5 10.4 93 1022.7 0.0 SW 0.0 0.0 0.1
08:07 11.5 10.4 93 1022.7 0.0 SW 0.0 0.0 0.1
08:08 11.5 10.4 93 1022.6 0.0 SW 0.0 0.0 0.1
08:09 11.5 10.4 93 1022.5 0.7 S 0.7 0.0 0.1
08:10 11.6 10.5 93 1022.6 2.2 SSW 2.2 0.0 0.1
08:11 11.6 10.5 93 1022.6 0.7 SW 2.2 0.0 0.1
08:13 11.6 10.5 93 1022.7 2.2 SW 2.2 0.0 0.1
08:14 11.7 10.6 93 1022.6 2.2 S 2.2 0.0 0.1
08:15 11.7 10.6 93 1022.6 1.6 SE 2.2 0.0 0.1
08:16 11.7 10.6 93 1022.7 1.6 S 2.2 0.0 0.1
08:17 11.7 10.6 93 1022.7 3.1 S 3.1 0.0 0.1
08:18 11.8 10.7 93 1022.5 3.1 SE 3.1 0.0 0.1
08:19 11.8 10.7 93 1022.6 2.2 S 3.1 0.0 0.1
08:20 11.8 10.7 93 1022.7 2.2 W 3.1 0.0 0.1
08:21 11.8 10.7 93 1022.7 2.2 SE 3.1 0.0 0.1
08:22 11.9 10.8 93 1022.8 2.2 S 3.1 0.0 0.1
08:23 11.9 10.8 93 1022.7 2.2 S 3.1 0.0 0.1
08:24 11.9 10.8 93 1022.8 3.1 SE 3.1 0.0 0.1
08:25 11.9 10.8 93 1022.7 2.2 SW 3.1 0.0 0.1
08:27 12.0 10.9 93 1022.7 3.8 S 3.8 0.0 0.1
08:28 12.0 11.1 94 1022.8 2.2 SW 3.8 0.0 0.1
08:29 12.0 11.1 94 1022.8 4.5 S 4.5 0.0 0.1
08:30 12.1 11.2 94 1022.8 3.8 SE 4.5 0.0 0.1
08:31 12.1 11.2 94 1022.7 3.1 SW 4.5 0.0 0.1
08:32 12.1 11.2 94 1022.7 3.1 SW 4.5 0.0 0.1
08:33 12.1 11.2 94 1022.7 3.1 SW 4.5 0.0 0.1
08:34 12.2 11.3 94 1022.7 3.8 SW 4.5 0.0 0.1
08:35 12.2 11.3 94 1022.7 3.1 S 4.5 0.0 0.1
08:36 12.2 11.3 94 1022.7 4.5 SW 4.5 0.0 0.1
08:37 12.3 11.4 94 1022.7 3.8 S 4.5 0.0 0.1
08:38 12.3 11.4 94 1022.6 3.8 S 4.5 0.0 0.1
08:39 12.4 11.5 94 1022.6 6.0 S 6.0 0.0 0.1
08:40 12.4 11.5 94 1022.6 3.8 S 6.0 0.0 0.1
08:42 12.5 11.6 94 1022.7 3.1 S 6.0 0.0 0.1
08:43 12.6 11.7 94 1022.6 5.4 SW 6.0 0.0 0.1
08:44 12.6 11.7 94 1022.6 6.0 SSW 6.0 0.0 0.1
08:45 12.6 11.7 94 1022.7 3.8 W 6.0 0.0 0.1
08:46 12.6 11.7 94 1022.6 4.5 W 6.0 0.0 0.1
08:47 12.7 11.8 94 1022.7 3.8 S 6.0 0.0 0.1
08:48 12.7 11.8 94 1022.6 3.8 SW 6.0 0.0 0.1
08:49 12.8 11.9 94 1022.8 5.4 SW 6.0 0.0 0.1
08:50 12.8 11.9 94 1022.6 6.0 S 6.0 0.0 0.1
08:51 12.9 12.0 94 1022.7 5.4 W 6.0 0.0 0.1
08:52 12.9 12.0 94 1022.7 4.5 SW 6.0 0.0 0.1
08:53 12.9 12.1 95 1022.7 6.0 SW 6.9 0.0 0.1
08:54 13.0 12.2 95 1022.7 6.0 SW 6.9 0.0 0.1
08:56 13.1 12.3 95 1022.8 6.0 SSW 6.9 0.0 0.1
08:57 13.1 12.3 95 1022.8 8.3 S 8.3 0.0 0.1
08:58 13.2 12.4 95 1022.7 6.9 S 8.3 0.0 0.1
08:59 13.2 12.4 95 1022.7 7.6 NW 8.3 0.0 0.1
09:00 13.2 12.4 95 1022.8 5.4 SW 8.3 0.0 0.1
09:01 13.2 12.4 95 1022.8 4.5 SSW 8.3 0.0 0.1
09:02 13.3 12.5 95 1022.8 5.4 SW 8.3 0.0 0.1
09:03 13.3 12.5 95 1022.7 6.0 SW 8.3 0.0 0.1
09:04 13.3 12.5 95 1022.8 6.0 SW 8.3 0.0 0.1
09:05 13.4 12.6 95 1022.7 9.2 NW 9.2 0.0 0.1
09:06 13.4 12.6 95 1022.8 6.9 SW 9.2 0.0 0.1
09:07 13.4 12.6 95 1022.8 6.9 SW 9.2 0.0 0.1
09:08 13.5 12.7 95 1022.8 6.0 WSW 9.2 0.0 0.1
09:09 13.5 12.6 94 1022.7 6.9 S 9.2 0.0 0.1
09:10 13.5 12.7 95 1022.7 9.8 WSW 9.8 0.0 0.1
09:11 13.5 12.6 94 1022.6 8.3 W 9.8 0.0 0.1
09:12 13.6 12.7 94 1022.8 8.3 W 9.8 0.0 0.1
09:15 13.6 12.7 94 1022.8 8.3 SW 9.8 0.0 0.1
09:19 13.8 12.9 94 1022.9 6.0 SW 10.7 0.0 0.1
09:20 13.8 12.9 94 1022.8 8.3 W 10.7 0.0 0.1
09:21 13.8 12.9 94 1022.8 6.0 N 10.7 0.0 0.1
09:22 13.8 12.9 94 1022.8 6.0 SW 10.7 0.0 0.1
09:23 13.8 12.9 94 1022.9 6.9 W 10.7 0.0 0.1
09:24 13.8 12.9 94 1022.8 7.6 SW 10.7 0.0 0.1
09:25 13.9 13.0 94 1022.9 8.3 W 10.7 0.0 0.1
09:26 13.9 13.0 94 1022.8 6.0 W 10.7 0.0 0.1
09:27 13.9 13.0 94 1022.7 9.2 NW 10.7 0.0 0.1
09:28 13.9 13.0 94 1022.8 6.9 SW 9.2 0.0 0.1
09:29 14.0 13.1 94 1022.8 8.3 W 9.2 0.0 0.1
09:30 14.0 13.1 94 1022.6 6.0 WSW 9.2 0.0 0.1
09:31 14.0 13.1 94 1022.8 6.9 SW 9.2 0.0 0.1
09:33 14.0 13.1 94 1022.8 5.4 SW 9.2 0.0 0.1
09:34 14.0 13.1 94 1022.8 6.0 S 9.2 0.0 0.1
09:35 14.1 13.0 93 1022.8 9.8 S 9.8 0.0 0.1
09:36 14.1 13.0 93 1022.7 7.6 SW 9.8 0.0 0.1
09:37 14.1 13.0 93 1022.8 6.9 SW 9.8 0.0 0.1
09:38 14.1 13.0 93 1022.6 6.0 SW 9.8 0.0 0.1
09:39 14.1 13.0 93 1022.7 5.4 S 9.8 0.0 0.1
09:40 14.1 13.0 93 1022.6 5.4 NW 9.8 0.0 0.1
09:41 14.2 13.1 93 1022.7 6.9 SW 9.8 0.0 0.1
09:42 14.2 13.1 93 1022.7 5.4 NW 9.8 0.0 0.1
09:43 14.2 13.1 93 1022.7 6.0 S 9.8 0.0 0.1
09:44 14.2 13.1 93 1022.7 3.8 SW 9.8 0.0 0.1
09:45 14.3 13.2 93 1022.7 7.6 SW 9.8 0.0 0.1
09:47 14.3 13.2 93 1022.7 9.8 SW 10.7 0.0 0.1
09:48 14.4 13.3 93 1022.8 6.9 W 10.7 0.0 0.1
09:49 14.4 13.1 92 1022.8 8.3 S 10.7 0.0 0.1
09:50 14.4 13.1 92 1022.7 5.4 SW 10.7 0.0 0.1
09:51 14.4 13.1 92 1022.6 9.8 SW 10.7 0.0 0.1
09:52 14.4 13.1 92 1022.6 9.8 SW 10.7 0.0 0.1
09:53 14.4 13.1 92 1022.7 8.3 NW 10.7 0.0 0.1
09:54 14.4 13.1 92 1022.7 8.3 NW 10.7 0.0 0.1
09:55 14.4 13.1 92 1022.6 7.6 SW 10.7 0.0 0.1
09:56 14.4 13.0 91 1022.6 8.3 W 10.7 0.0 0.1
09:57 14.4 13.0 91 1022.5 7.6 SW 9.8 0.0 0.1
09:58 14.4 13.0 91 1022.7 7.6 SW 9.8 0.0 0.1
09:59 14.4 13.0 91 1022.7 6.0 S 9.8 0.0 0.1
10:01 14.4 13.0 91 1022.8 7.6 S 9.8 0.0 0.1
10:02 14.4 12.8 90 1022.9 8.3 S 8.3 0.0 0.1
10:03 14.4 12.8 90 1022.8 6.0 SW 8.3 0.0 0.1
10:04 14.4 12.8 90 1022.9 6.0 SW 8.3 0.0 0.1
10:05 14.4 12.8 90 1022.8 8.3 SW 8.3 0.0 0.1
10:06 14.4 12.8 90 1022.9 6.0 SW 8.3 0.0 0.1
10:07 14.4 12.8 90 1022.8 6.9 SW 8.3 0.0 0.1
10:08 14.4 12.8 90 1023.0 6.9 W 8.3 0.0 0.1
10:09 14.4 12.8 90 1022.9 8.3 S 8.3 0.0 0.1
10:10 14.5 12.7 89 1022.9 6.9 SW 9.2 0.0 0.1
10:11 14.5 12.7 89 1022.9 7.6 SW 9.2 0.0 0.1
10:12 14.5 12.7 89 1022.9 11.4 SW 11.4 0.0 0.1
10:13 14.5 12.7 89 1022.9 9.8 SW 11.4 0.0 0.1
10:14 14.6 12.8 89 1022.9 13.6 S 13.6 0.0 0.1
10:16 14.7 12.7 88 1022.8 12.1 SW 14.5 0.0 0.1
10:17 14.7 12.7 88 1023.0 10.7 SW 14.5 0.0 0.1
10:18 14.7 12.7 88 1023.0 10.7 SW 14.5 0.0 0.1
10:19 14.8 12.8 88 1023.0 12.1 SW 16.8 0.0 0.1
10:20 14.8 12.8 88 1023.0 12.1 SW 16.8 0.0 0.1
10:21 14.8 12.7 87 1023.1 9.2 SW 16.8 0.0 0.1
10:22 14.9 12.8 87 1023.2 10.7 S 16.8 0.0 0.1
10:23 14.9 12.8 87 1023.0 10.7 SE 16.8 0.0 0.1
10:24 15.0 12.9 87 1023.1 10.7 SW 16.8 0.0 0.1
10:25 15.0 12.9 87 1023.1 11.4 NW 16.8 0.0 0.1
10:26 15.0 12.9 87 1023.0 10.7 W 16.8 0.0 0.1
10:27 15.1 12.8 86 1023.0 9.2 WNW 16.8 0.0 0.1
10:28 15.1 12.4 84 1023.1 10.7 SW 16.8 0.0 0.1
10:29 15.2 12.5 84 1023.1 6.0 SW 15.2 0.0 0.1
10:31 15.4 12.7 84 1023.1 11.4 SW 14.5 0.0 0.1
10:32 15.4 12.7 84 1023.0 9.2 SW 14.5 0.0 0.1
10:33 15.4 12.7 84 1023.0 6.9 WNW 14.5 0.0 0.1
10:34 15.5 12.4 82 1023.0 11.4 SW 14.5 0.0 0.1
10:35 15.5 12.4 82 1023.0 11.4 SW 14.5 0.0 0.1
10:36 15.5 12.4 82 1023.0 10.7 W 14.5 0.0 0.1
10:37 15.5 12.3 81 1023.1 13.0 WSW 14.5 0.0 0.1
10:38 15.6 12.2 80 1023.4 14.5 SW 14.5 0.0 0.1
10:39 15.6 12.2 80 1023.2 9.8 SW 14.5 0.0 0.1
10:40 15.6 12.2 80 1023.2 10.7 NW 14.5 0.0 0.1
10:41 15.7 12.1 79 1023.1 8.3 SW 14.5 0.0 0.1
10:42 15.7 12.1 79 1023.1 13.0 SW 14.5 0.0 0.1
10:43 15.7 11.9 78 1023.0 12.1 SW 14.5 0.0 0.1
10:45 15.7 11.5 76 1023.0 16.8 SW 16.8 0.0 0.1
10:46 15.8 11.6 76 1023.0 10.7 S 16.8 0.0 0.1
10:47 15.8 11.4 75 1023.1 10.7 W 16.8 0.0 0.1
10:48 15.8 11.4 75 1023.1 9.8 SW 16.8 0.0 0.1
10:49 15.8 11.4 75 1023.1 9.8 SW 16.8 0.0 0.1
10:50 15.8 11.4 75 1023.1 13.6 WSW 16.8 0.0 0.1
10:51 15.8 11.4 75 1023.3 15.9 SW 16.8 0.0 0.1
10:52 15.7 11.3 75 1023.1 13.6 SW 16.8 0.0 0.1
10:53 15.7 11.3 75 1023.2 14.5 S 16.8 0.0 0.1
10:54 15.7 11.3 75 1023.2 14.5 S 16.8 0.0 0.1
10:55 15.7 11.1 74 1023.3 14.5 S 16.8 0.0 0.1
10:56 15.7 11.1 74 1023.3 16.8 S 16.8 0.0 0.1
10:57 15.7 11.1 74 1023.1 13.0 SW 16.8 0.0 0.1
10:59 15.7 11.1 74 1023.2 13.0 WSW 16.8 0.0 0.1
11:00 15.7 11.1 74 1023.3 13.0 SSW 16.8 0.0 0.1
11:01 15.7 11.1 74 1023.3 11.4 SSW 16.8 0.0 0.1
11:02 15.7 11.1 74 1023.2 13.0 S 16.8 0.0 0.1
11:03 15.7 11.1 74 1023.2 13.0 S 16.8 0.0 0.1
11:04 15.7 10.9 73 1023.3 15.2 SW 16.8 0.0 0.1
11:05 15.8 11.0 73 1023.2 16.8 SW 16.8 0.0 0.1
11:06 15.8 11.0 73 1023.1 9.8 SW 16.8 0.0 0.1
11:07 15.8 11.0 73 1023.1 9.8 SW 16.8 0.0 0.1
11:08 15.8 11.2 74 1023.2 10.7 N 16.8 0.0 0.1
11:09 15.9 11.3 74 1023.3 11.4 N 16.8 0.0 0.1
11:10 15.8 11.2 74 1023.2 13.0 SW 16.8 0.0 0.1
11:11 15.9 11.3 74 1023.3 14.5 S 16.8 0.0 0.1
11:12 15.8 11.2 74 1023.4 12.1 SW 16.8 0.0 0.1
11:13 15.8 11.2 74 1023.3 11.4 SW 16.8 0.0 0.1
11:14 15.8 11.2 74 1023.3 10.7 SSW 16.8 0.0 0.1
11:15 15.8 11.2 74 1023.2 11.4 SW 14.5 0.0 0.1
11:17 15.8 11.2 74 1023.3 9.2 SW 14.5 0.0 0.1
11:18 15.8 11.2 74 1023.2 9.8 SW 14.5 0.0 0.1
11:19 15.8 11.2 74 1023.4 13.0 S 14.5 0.0 0.1
11:20 15.8 11.2 74 1023.2 12.1 S 14.5 0.0 0.1
11:21 15.8 11.2 74 1023.4 8.3 SW 14.5 0.0 0.1
11:22 15.8 11.2 74 1023.4 8.3 NW 13.0 0.0 0.1
11:23 15.8 11.4 75 1023.3 10.7 SW 13.0 0.0 0.1
11:24 15.7 11.3 75 1023.4 8.3 WSW 13.0 0.0 0.1
11:25 15.8 11.4 75 1023.4 13.6 SW 13.6 0.0 0.1
11:26 15.7 11.3 75 1023.3 10.7 W 13.6 0.0 0.1
11:27 15.7 11.3 75 1023.2 9.2 SW 13.6 0.0 0.1
11:28 15.7 11.3 75 1023.3 9.8 W 13.6 0.0 0.1
11:29 15.7 11.3 75 1023.3 10.7 SW 13.6 0.0 0.1
11:31 15.7 11.3 75 1023.2 9.8 SW 13.6 0.0 0.1
11:32 15.7 11.3 75 1023.3 9.2 WSW 13.6 0.0 0.1
11:33 15.8 11.4 75 1023.3 9.2 SW 13.6 0.0 0.1
11:34 15.8 11.4 75 1023.2 9.8 SW 13.6 0.0 0.1
11:35 15.8 11.4 75 1023.3 9.8 NW 11.4 0.0 0.1
11:36 15.8 11.4 75 1023.3 9.8 NW 11.4 0.0 0.1
11:37 15.8 11.4 75 1023.3 10.7 SW 11.4 0.0 0.1
11:38 15.9 11.5 75 1023.3 6.0 W 11.4 0.0 0.1
11:39 15.9 11.5 75 1023.1 12.1 SW 12.1 0.0 0.1
11:40 15.9 11.5 75 1023.2 11.4 S 12.1 0.0 0.1
11:41 16.0 11.6 75 1023.2 12.1 SW 13.6 0.0 0.1
11:42 16.0 11.6 75 1023.1 14.5 WSW 14.5 0.0 0.1
11:43 16.0 11.6 75 1023.3 13.6 WSW 14.5 0.0 0.1
11:44 16.0 11.6 75 1023.2 7.6 SW 14.5 0.0 0.1
11:46 16.0 11.6 75 1023.3 9.2 WSW 14.5 0.0 0.1
11:47 16.0 11.6 75 1023.2 13.6 S 14.5 0.0 0.1
11:48 16.0 11.6 75 1023.2 7.6 S 14.5 0.0 0.1
11:49 16.0 11.6 75 1023.2 14.5 SW 14.5 0.0 0.1
11:50 16.0 11.6 75 1023.2 12.1 SW 14.5 0.0 0.1
11:51 16.0 11.6 75 1023.4 14.5 SW 14.5 0.0 0.1
11:52 16.0 11.6 75 1023.3 12.1 S 14.5 0.0 0.1
11:53 16.1 11.7 75 1023.3 10.7 SW 14.5 0.0 0.1
11:54 16.2 11.8 75 1023.2 9.8 SW 14.5 0.0 0.1
11:55 16.3 11.9 75 1023.2 6.9 W 14.5 0.0 0.1
11:56 16.3 12.1 76 1023.1 10.7 SW 14.5 0.0 0.1
11:57 16.4 11.8 74 1023.2 10.7 SW 15.9 0.0 0.1
11:58 16.4 11.8 74 1023.2 11.4 SW 15.9 0.0 0.1
12:00 16.5 11.9 74 1023.1 11.4 SW 15.9 0.0 0.1
12:01 16.6 12.0 74 1023.2 7.6 SW 15.9 0.0 0.1
12:02 16.6 12.2 75 1023.2 9.8 W 15.9 0.0 0.1
12:03 16.7 12.1 74 1023.2 10.7 SW 15.9 0.0 0.1
12:04 16.7 12.1 74 1023.2 10.7 SW 15.9 0.0 0.1
12:05 16.7 12.1 74 1023.2 7.6 NNW 15.9 0.0 0.1
12:06 16.6 12.0 74 1023.2 4.5 SW 15.9 0.0 0.1
12:07 16.6 12.0 74 1023.3 6.0 SW 11.4 0.0 0.1
12:08 16.6 12.0 74 1023.2 9.8 NW 11.4 0.0 0.1
12:09 16.6 12.0 74 1023.3 9.2 W 11.4 0.0 0.1
12:10 16.5 11.9 74 1023.3 9.8 SW 13.0 0.0 0.1
12:11 16.5 11.9 74 1023.3 8.3 SW 13.0 0.0 0.1
12:12 16.4 11.8 74 1023.3 7.6 NW 13.0 0.0 0.1
12:13 16.3 11.7 74 1023.3 9.2 SW 13.0 0.0 0.1
12:15 16.2 11.6 74 1023.3 8.3 W 13.0 0.0 0.1
12:16 16.2 11.6 74 1023.1 8.3 SW 13.0 0.0 0.1
12:17 16.2 11.6 74 1023.1 8.3 SW 13.0 0.0 0.1
12:18 16.1 11.5 74 1023.2 7.6 NW 13.0 0.0 0.1
12:19 16.1 11.5 74 1023.3 7.6 W 13.0 0.0 0.1
12:20 16.1 11.5 74 1023.2 10.7 SW 10.7 0.0 0.1
12:21 16.0 11.4 74 1023.3 8.3 S 12.1 0.0 0.1
12:22 16.0 11.6 75 1023.2 12.1 SW 12.1 0.0 0.1
12:23 16.0 11.8 76 1023.3 9.2 SW 12.1 0.0 0.1
12:24 16.0 12.0 77 1023.3 9.8 SW 12.1 0.0 0.1
12:25 16.1 12.1 77 1023.3 9.8 S 12.1 0.0 0.1
12:26 16.2 12.4 78 1023.3 9.8 W 12.1 0.0 0.1
12:27 16.4 12.8 79 1023.3 7.6 SW 12.1 0.0 0.1
12:28 16.5 12.7 78 1023.1 11.4 SW 12.1 0.0 0.1
12:30 16.7 12.7 77 1023.1 10.7 SW 12.1 0.0 0.1
12:31 17.0 12.9 77 1023.3 6.9 NW 12.1 0.0 0.1
12:32 17.1 12.8 76 1023.2 11.4 SW 11.4 0.0 0.1
12:33 17.2 12.7 75 1023.2 9.2 W 11.4 0.0 0.1
12:34 17.3 12.6 74 1023.2 10.7 NNW 11.4 0.0 0.1
12:35 17.3 12.4 73 1023.2 9.8 WSW 11.4 0.0 0.1
12:36 17.3 12.4 73 1023.1 7.6 SW 11.4 0.0 0.1
12:37 17.4 12.3 72 1023.0 8.3 W 11.4 0.0 0.1
12:38 17.5 12.4 72 1023.2 11.4 W 11.4 0.0 0.1
12:39 17.5 12.4 72 1023.1 11.4 NW 11.4 0.0 0.1
12:40 17.5 12.2 71 1023.1 11.4 WSW 11.4 0.0 0.1
12:41 17.5 12.2 71 1023.1 10.7 SW 11.4 0.0 0.1
12:42 17.4 12.1 71 1023.2 9.2 NE 11.4 0.0 0.1
12:45 17.4 12.1 71 1023.3 12.1 SW 12.1 0.0 0.1
12:46 17.4 11.9 70 1023.1 8.3 SW 12.1 0.0 0.1
12:47 17.4 11.7 69 1023.2 12.1 WNW 12.1 0.0 0.1
12:48 17.4 11.2 67 1023.1 12.1 S 13.0 0.0 0.1
12:49 17.4 11.4 68 1023.4 13.0 SW 13.0 0.0 0.1
12:50 17.4 11.2 67 1023.1 12.1 N 13.0 0.0 0.1
12:51 17.4 11.4 68 1023.2 12.1 W 13.0 0.0 0.1
12:52 17.4 11.4 68 1023.1 11.4 SW 13.0 0.0 0.1
12:53 17.5 11.5 68 1022.9 7.6 SW 13.0 0.0 0.1
12:54 17.5 11.5 68 1022.9 7.6 SW 13.0 0.0 0.1
12:55 17.5 11.5 68 1023.1 17.4 NW 17.4 0.0 0.1
12:56 17.5 11.3 67 1023.1 14.5 NW 17.4 0.0 0.1
12:57 17.5 11.3 67 1023.2 11.4 WSW 17.4 0.0 0.1
12:58 17.4 11.0 66 1023.1 14.5 S 17.4 0.0 0.1
13:00 17.4 10.8 65 1023.1 12.1 SW 17.4 0.0 0.1
13:01 17.4 10.8 65 1023.0 13.6 SW 17.4 0.0 0.1
13:02 17.5 10.9 65 1023.1 13.6 WSW 17.4 0.0 0.1
13:03 17.6 11.0 65 1022.9 15.2 S 17.4 0.0 0.1
13:04 17.6 11.0 65 1023.1 9.8 W 17.4 0.0 0.1
13:05 17.7 10.8 64 1023.1 9.8 SW 17.4 0.0 0.1
13:06 17.8 10.9 64 1023.0 13.0 SW 15.2 0.0 0.1
13:07 17.9 11.0 64 1022.9 9.2 NW 15.2 0.0 0.1
13:08 18.0 11.3 65 1023.2 9.2 NW 15.2 0.0 0.1
13:09 18.1 11.0 63 1023.1 14.5 SW 15.2 0.0 0.1
13:10 18.2 10.6 61 1023.0 17.4 SW 17.4 0.0 0.1
13:11 18.2 10.6 61 1023.1 16.8 S 17.4 0.0 0.1
13:12 18.2 10.6 61 1023.1 13.6 SW 17.4 0.0 0.1
13:13 18.2 10.3 60 1023.0 16.8 SW 17.4 0.0 0.1
13:14 18.2 10.3 60 1023.0 16.8 SW 17.4 0.0 0.1
13:15 18.2 10.6 61 1023.0 15.2 WNW 17.4 0.0 0.1
13:16 18.2 10.3 60 1023.0 13.0 W 17.4 0.0 0.1
13:17 18.2 10.6 61 1023.0 12.1 S 17.4 0.0 0.1
13:18 18.2 10.8 62 1023.1 15.2 SW 17.4 0.0 0.1
13:20 18.3 11.1 63 1023.0 10.7 NW 17.4 0.0 0.1
13:21 18.4 11.2 63 1023.0 10.7 W 16.8 0.0 0.1
13:22 18.4 11.0 62 1023.1 16.8 SW 16.8 0.0 0.1
13:23 18.4 11.0 62 1023.0 13.0 WNW 16.8 0.0 0.1
13:24 18.5 10.8 61 1023.0 15.9 NW 16.8 0.0 0.1
13:25 18.5 10.8 61 1022.9 11.4 SW 16.8 0.0 0.1
13:26 18.5 11.3 63 1022.9 10.7 SW 16.8 0.0 0.1
13:27 18.6 11.2 62 1023.0 11.4 SW 16.8 0.0 0.1
13:28 18.6 11.2 62 1023.1 10.7 SW 16.8 0.0 0.1
13:29 18.7 11.3 62 1022.9 9.2 SW 16.8 0.0 0.1
13:30 18.9 11.2 61 1022.8 15.9 NW 16.8 0.0 0.1
13:31 19.0 10.8 59 1023.0 15.2 SW 16.8 0.0 0.1
13:32 19.0 11.3 61 1022.9 12.1 NW 15.9 0.0 0.1
13:33 19.1 10.9 59 1022.9 14.5 S 16.8 0.0 0.1
13:34 19.1 10.9 59 1022.9 14.5 S 16.8 0.0 0.1
13:35 19.1 11.2 60 1022.9 12.1 SW 16.8 0.0 0.1
13:36 19.1 11.2 60 1022.8 11.4 SW 16.8 0.0 0.1
13:37 19.0 10.8 59 1022.8 13.0 SW 16.8 0.0 0.1
13:38 19.0 10.8 59 1022.8 13.0 SW 16.8 0.0 0.1
13:39 18.8 10.4 58 1022.9 17.4 W 17.4 0.0 0.1
13:40 18.7 10.3 58 1022.8 15.2 NNW 17.4 0.0 0.1
13:41 18.5 10.3 59 1022.9 15.9 NW 17.4 0.0 0.1
13:42 18.4 10.3 59 1023.0 13.0 SW 17.4 0.0 0.1
13:43 18.3 10.2 59 1023.0 12.1 S 17.4 0.0 0.1
13:44 18.3 10.4 60 1022.9 9.2 WSW 17.4 0.0 0.1
13:45 18.1 10.5 61 1022.9 14.5 SW 17.4 0.0 0.1
13:46 18.1 10.5 61 1022.9 11.4 NW 17.4 0.0 0.1
13:47 18.1 10.5 61 1022.9 12.1 NW 17.4 0.0 0.1
13:48 18.0 10.1 60 1022.8 16.8 W 17.4 0.0 0.1
13:49 18.0 10.1 60 1022.8 13.6 NW 17.4 0.0 0.1
13:50 18.0 10.4 61 1022.8 8.3 W 16.8 0.0 0.1
13:51 18.0 10.1 60 1023.0 15.2 WSW 18.3 0.0 0.1
13:53 18.0 10.4 61 1023.0 15.9 SW 18.3 0.0 0.1
13:54 18.1 10.5 61 1023.1 13.0 SSW 18.3 0.0 0.1
13:55 18.1 10.5 61 1023.0 12.1 W 18.3 0.0 0.1
13:56 18.1 10.5 61 1023.1 13.0 SW 18.3 0.0 0.1
13:57 18.0 10.1 60 1023.1 16.8 SW 18.3 0.0 0.1
13:58 18.0 10.1 60 1023.0 14.5 SW 18.3 0.0 0.1
13:59 18.0 9.9 59 1023.0 17.4 SW 18.3 0.0 0.1
14:00 18.0 9.9 59 1022.9 14.5 W 18.3 0.0 0.1
14:01 18.0 10.1 60 1023.0 13.0 SW 17.4 0.0 0.1
14:02 18.0 10.4 61 1023.0 14.5 WNW 17.4 0.0 0.1
14:03 18.1 10.7 62 1022.9 9.8 SW 17.4 0.0 0.1
14:04 18.2 10.8 62 1022.9 14.5 W 17.4 0.0 0.1
14:05 18.2 10.8 62 1022.9 14.5 W 17.4 0.0 0.1
14:07 18.4 10.8 61 1023.0 13.0 S 17.4 0.0 0.1
14:08 18.4 10.3 59 1022.8 15.2 W 17.4 0.0 0.1
14:09 18.4 10.5 60 1022.9 12.1 SW 17.4 0.0 0.1
14:10 18.4 11.0 62 1022.9 16.8 SW 16.8 0.0 0.1
14:11 18.5 11.1 62 1022.9 12.1 SW 16.8 0.0 0.1
14:12 18.5 11.3 63 1023.1 8.3 SW 16.8 0.0 0.1
14:13 18.7 11.5 63 1023.0 13.6 SW 16.8 0.0 0.1
14:14 18.7 11.5 63 1023.0 13.6 SW 16.8 0.0 0.1
14:15 18.8 11.9 64 1023.0 11.4 SW 16.8 0.0 0.1
14:16 18.9 12.0 64 1023.0 9.2 W 16.8 0.0 0.1
14:17 19.0 11.8 63 1023.0 15.2 SW 16.8 0.0 0.1
14:18 19.0 11.6 62 1022.8 15.9 SW 16.8 0.0 0.1
14:19 19.0 11.3 61 1022.9 15.2 SSW 16.8 0.0 0.1
14:20 19.0 11.6 62 1023.0 13.6 SW 15.9 0.0 0.1
14:22 19.0 11.6 62 1022.9 12.1 W 15.9 0.0 0.1
14:23 19.0 11.6 62 1022.9 11.4 NW 15.9 0.0 0.1
14:24 19.1 11.7 62 1022.9 15.2 SW 15.9 0.0 0.1
14:25 19.2 11.5 61 1022.9 13.0 SW 15.9 0.0 0.1
14:26 19.2 11.5 61 1022.9 13.6 S 15.9 0.0 0.1
14:27 19.2 11.5 61 1022.8 10.7 SW 15.9 0.0 0.1
14:28 19.2 11.5 61 1022.8 13.6 W 15.2 0.0 0.1
14:29 19.3 11.4 60 1022.9 15.9 SW 15.9 0.0 0.1
14:30 19.2 10.7 58 1022.7 13.6 NW 15.9 0.0 0.1
14:31 19.1 10.9 59 1022.6 15.9 SW 15.9 0.0 0.1
14:32 19.0 10.8 59 1022.7 15.2 SW 15.9 0.0 0.1
14:33 19.0 11.1 60 1022.7 15.2 SW 15.9 0.0 0.1
14:34 19.0 11.1 60 1022.7 16.8 S 16.8 0.0 0.1
14:36 18.8 10.9 60 1022.7 13.0 SW 19.0 0.0 0.1
14:37 18.8 10.9 60 1022.5 16.8 SW 19.0 0.0 0.1
14:38 18.8 10.6 59 1022.6 12.1 SW 19.0 0.0 0.1
14:39 18.7 10.8 60 1022.6 14.5 SW 19.0 0.0 0.1
14:40 18.7 10.5 59 1022.7 11.4 W 19.0 0.0 0.1
14:41 18.7 10.5 59 1022.6 13.6 SW 19.0 0.0 0.1
14:42 18.7 10.8 60 1022.6 11.4 WSW 19.0 0.0 0.1
14:43 18.7 10.5 59 1022.6 11.4 W 19.0 0.0 0.1
14:44 18.7 10.8 60 1022.7 9.2 SE 19.0 0.0 0.1
14:45 18.8 10.6 59 1022.6 10.7 W 16.8 0.0 0.1
14:46 18.8 10.6 59 1022.6 9.8 W 16.8 0.0 0.1
14:47 18.8 10.6 59 1022.7 12.1 SW 14.5 0.0 0.1
14:48 18.9 10.7 59 1022.6 12.1 SW 14.5 0.0 0.1
14:49 18.9 10.5 58 1022.6 13.6 NW 14.5 0.0 0.1
14:50 18.8 10.4 58 1022.6 12.1 W 13.6 0.0 0.1
14:51 18.9 10.7 59 1022.7 11.4 NW 13.6 0.0 0.1
14:53 19.0 10.8 59 1022.8 14.5 S 15.2 0.0 0.1
14:54 19.0 10.8 59 1022.6 13.6 S 15.2 0.0 0.1
14:55 18.9 10.7 59 1022.6 15.9 SW 15.9 0.0 0.1
14:56 18.9 10.7 59 1022.6 12.1 SW 15.9 0.0 0.1
14:57 19.0 10.8 59 1022.6 10.7 SW 15.9 0.0 0.1
14:58 19.0 10.3 57 1022.8 14.5 SW 15.9 0.0 0.1
14:59 19.0 10.0 56 1022.8 12.1 SW 15.9 0.0 0.1
15:00 19.0 9.8 55 1022.8 12.1 W 15.9 0.0 0.1
15:01 19.0 10.0 56 1022.7 13.6 SW 15.9 0.0 0.1
15:02 19.0 10.0 56 1022.8 13.6 W 15.9 0.0 0.1
15:03 19.0 10.3 57 1022.8 11.4 W 15.9 0.0 0.1
15:04 19.0 10.3 57 1022.8 13.0 SW 15.9 0.0 0.1
15:05 19.0 10.3 57 1022.9 13.0 SW 15.9 0.0 0.1
15:06 19.0 9.8 55 1022.7 13.0 SW 14.5 0.0 0.1
15:07 19.0 9.8 55 1022.8 13.6 W 15.2 0.0 0.1
15:08 18.9 9.7 55 1022.9 9.8 NW 15.2 0.0 0.1
15:09 19.0 10.3 57 1022.9 11.4 SW 15.2 0.0 0.1
15:10 19.0 10.3 57 1022.9 11.4 SW 15.2 0.0 0.1
15:11 19.0 10.3 57 1022.9 12.1 W 15.2 0.0 0.1
15:12 19.0 10.3 57 1023.0 11.4 NW 15.2 0.0 0.1
15:14 18.9 10.2 57 1023.1 13.6 WNW 15.2 0.0 0.1
15:15 18.7 10.0 57 1023.1 13.0 NW 15.2 0.0 0.1
15:16 18.6 9.9 57 1023.1 13.0 W 15.2 0.0 0.1
15:17 18.4 9.7 57 1023.1 8.3 SW 13.6 0.0 0.1
15:18 18.3 9.9 58 1023.0 11.4 SW 13.6 0.0 0.1
15:19 18.3 9.9 58 1023.3 9.8 SW 13.6 0.0 0.1
15:20 18.2 10.1 59 1023.1 13.0 W 13.6 0.0 0.1
15:21 18.1 10.0 59 1023.0 15.2 W 15.2 0.0 0.1
15:22 18.1 10.2 60 1022.8 11.4 SW 15.2 0.0 0.1
15:23 18.1 10.0 59 1023.0 15.9 SW 15.9 0.0 0.1
15:24 18.1 10.2 60 1022.9 12.1 SW 15.9 0.0 0.1
15:25 18.1 10.2 60 1022.8 13.6 SW 15.9 0.0 0.1
15:26 18.1 10.7 62 1023.0 10.7 SW 15.9 0.0 0.1
15:28 18.2 10.8 62 1023.1 9.2 SW 15.9 0.0 0.1
15:29 18.3 10.9 62 1023.0 13.6 SW 15.9 0.0 0.1
15:30 18.4 11.0 62 1023.0 13.0 SSW 15.9 0.0 0.1
15:31 18.5 11.1 62 1022.9 11.4 SW 15.9 0.0 0.1
15:32 18.6 11.2 62 1023.1 9.8 NW 15.9 0.0 0.1
15:33 18.7 10.8 60 1023.0 19.0 NW 19.0 0.0 0.1
15:34 18.7 10.8 60 1023.0 16.8 NW 19.0 0.0 0.1
15:35 18.7 10.8 60 1023.1 14.5 SW 19.0 0.0 0.1
15:36 18.7 11.0 61 1023.1 11.4 SW 19.0 0.0 0.1
15:37 18.7 10.8 60 1023.1 14.5 SW 19.0 0.0 0.1
15:38 18.7 10.8 60 1022.9 15.2 SW 19.0 0.0 0.1
15:39 18.6 10.4 59 1023.1 12.1 W 19.0 0.0 0.1
15:40 18.6 10.4 59 1023.2 13.6 SW 19.0 0.0 0.1
15:42 18.5 10.1 58 1023.1 12.1 W 19.0 0.0 0.1
15:43 18.4 9.7 57 1023.0 12.1 NW 19.0 0.0 0.1
15:44 18.5 10.1 58 1023.0 9.8 WNW 16.8 0.0 0.1
15:45 18.6 10.4 59 1023.0 10.7 W 15.9 0.0 0.1
15:46 18.7 10.5 59 1023.1 13.0 SW 15.9 0.0 0.1
15:47 18.7 10.8 60 1023.1 9.8 SW 15.9 0.0 0.1
15:48 18.8 10.9 60 1023.0 13.6 S 15.9 0.0 0.1
15:49 18.9 11.2 61 1023.0 14.5 NW 15.9 0.0 0.1
15:50 18.9 11.2 61 1023.0 15.9 SW 15.9 0.0 0.1
15:51 18.8 11.1 61 1023.0 15.2 SW 15.9 0.0 0.1
15:52 18.8 11.6 63 1023.1 11.4 SW 15.9 0.0 0.1
15:53 18.7 11.3 62 1023.0 11.4 SW 15.9 0.0 0.1
15:54 18.7 11.3 62 1023.0 9.8 NW 15.9 0.0 0.1
15:55 18.7 11.3 62 1023.0 8.3 S 15.9 0.0 0.1
15:56 18.7 11.3 62 1023.0 12.1 SW 15.9 0.0 0.1
15:57 18.7 11.3 62 1023.0 12.1 SW 15.9 0.0 0.1
15:58 18.7 11.0 61 1023.1 9.8 W 15.9 0.0 0.1
15:59 18.7 11.0 61 1023.1 13.6 WNW 15.9 0.0 0.1
16:00 18.7 11.0 61 1023.0 13.6 SW 15.9 0.0 0.1
16:02 18.8 11.4 62 1023.1 6.9 NW 14.5 0.0 0.1
16:03 18.8 11.1 61 1023.0 11.4 SSW 14.5 0.0 0.1
16:04 18.8 11.4 62 1023.1 9.8 W 14.5 0.0 0.1
16:05 18.8 11.1 61 1023.0 14.5 SW 14.5 0.0 0.1
16:06 18.7 11.0 61 1023.0 10.7 SW 14.5 0.0 0.1
16:07 18.7 11.0 61 1023.0 12.1 SW 14.5 0.0 0.1
16:08 18.6 10.9 61 1023.1 13.0 W 14.5 0.0 0.1
16:09 18.6 10.9 61 1023.1 12.1 SW 14.5 0.0 0.1
16:10 18.5 10.8 61 1023.0 10.7 NW 14.5 0.0 0.1
16:11 18.5 11.1 62 1023.0 8.3 WSW 14.5 0.0 0.1
16:12 18.6 11.2 62 1023.0 10.7 W 14.5 0.0 0.1
16:13 18.6 11.2 62 1023.1 9.2 NW 14.5 0.0 0.1
16:14 18.6 11.2 62 1023.1 8.3 W 14.5 0.0 0.1
16:15 18.8 11.1 61 1023.1 9.2 NW 14.5 0.0 0.1
16:17 18.8 11.1 61 1023.0 8.3 E 13.0 0.0 0.1
16:18 18.9 11.2 61 1023.1 11.4 NW 13.0 0.0 0.1
16:19 18.9 11.2 61 1023.1 9.8 NW 12.1 0.0 0.1
16:20 19.0 11.3 61 1023.0 8.3 S 12.1 0.0 0.1
16:21 19.0 11.1 60 1023.0 12.1 SW 12.1 0.0 0.1
16:22 19.0 11.1 60 1023.0 10.7 SW 12.1 0.0 0.1
16:23 19.0 11.1 60 1023.0 11.4 NW 12.1 0.0 0.1
16:24 19.0 11.3 61 1023.1 8.3 NW 12.1 0.0 0.1
16:25 19.1 11.4 61 1023.0 6.9 N 12.1 0.0 0.1
16:26 19.1 11.4 61 1023.0 6.9 N 12.1 0.0 0.1
16:27 19.2 11.5 61 1023.1 9.2 NW 12.1 0.0 0.1
16:28 19.3 11.4 60 1022.8 15.2 SW 15.2 0.0 0.1
16:29 19.3 11.4 60 1023.0 12.1 SW 15.2 0.0 0.1
16:30 19.3 11.1 59 1023.0 13.0 SW 15.2 0.0 0.1
16:32 19.2 11.0 59 1023.1 12.1 SW 15.2 0.0 0.1
16:33 19.2 11.0 59 1023.1 13.6 SW 15.2 0.0 0.1
16:34 19.1 10.9 59 1023.2 14.5 SW 15.2 0.0 0.1
16:35 19.0 11.1 60 1023.0 9.8 S 15.2 0.0 0.1
16:36 19.0 10.8 59 1023.0 13.0 SW 16.8 0.0 0.1
16:37 19.0 10.8 59 1023.1 13.6 SW 16.8 0.0 0.1
16:38 19.0 11.1 60 1023.3 10.7 SW 16.8 0.0 0.1
16:39 18.9 11.0 60 1023.0 13.6 SW 16.8 0.0 0.1
16:40 18.9 11.0 60 1023.1 9.8 W 16.8 0.0 0.1
16:41 18.9 11.2 61 1023.1 13.0 S 16.8 0.0 0.1
16:42 18.9 11.2 61 1023.1 10.7 SW 16.8 0.0 0.1
16:43 18.9 11.0 60 1023.0 14.5 SW 16.8 0.0 0.1
16:45 18.9 11.2 61 1023.0 10.7 SW 16.8 0.0 0.1
16:46 18.9 11.2 61 1023.0 12.1 WSW 16.8 0.0 0.1
16:47 18.9 11.2 61 1023.0 9.8 S 16.8 0.0 0.1
16:48 18.9 11.2 61 1023.0 10.7 WSW 16.8 0.0 0.1
16:49 18.9 11.2 61 1023.0 10.7 SW 16.8 0.0 0.1
16:50 18.9 11.2 61 1023.0 9.2 NW 16.8 0.0 0.1
16:51 18.8 11.4 62 1023.0 12.1 SW 16.8 0.0 0.1
16:52 18.7 11.3 62 1022.9 10.7 NNW 16.8 0.0 0.1
16:53 18.6 11.2 62 1023.1 13.0 SW 13.0 0.0 0.1
16:54 18.6 11.2 62 1023.1 12.1 NW 13.0 0.0 0.1
16:55 18.5 11.1 62 1022.9 15.2 SW 15.2 0.0 0.1
16:56 18.5 11.1 62 1023.0 10.7 SW 15.2 0.0 0.1
16:57 18.4 11.0 62 1023.1 13.6 SW 15.2 0.0 0.1
16:58 18.3 10.7 61 1023.0 12.1 NW 15.2 0.0 0.1
17:00 18.0 10.6 62 1023.0 10.7 W 15.2 0.0 0.1
17:01 18.0 10.6 62 1022.9 10.7 W 15.2 0.0 0.1
17:02 17.9 10.8 63 1023.0 8.3 W 15.2 0.0 0.1
17:03 17.8 10.7 63 1023.0 9.2 SW 15.2 0.0 0.1
17:04 17.7 10.6 63 1023.0 12.1 N 15.2 0.0 0.1
17:05 17.6 10.7 64 1023.1 11.4 SW 15.2 0.0 0.1
17:06 17.6 10.7 64 1023.0 13.6 SW 15.2 0.0 0.1
17:07 17.5 10.6 64 1023.1 12.1 SW 15.2 0.0 0.1
17:08 17.5 10.4 63 1023.0 12.1 SW 15.2 0.0 0.1
17:09 17.4 10.5 64 1023.0 14.5 SW 15.2 0.0 0.1
17:10 17.4 10.3 63 1023.0 14.5 SW 15.2 0.0 0.1
17:11 17.3 10.4 64 1023.0 13.0 SW 15.2 0.0 0.1
17:12 17.2 10.3 64 1023.1 13.6 SW 15.2 0.0 0.1
17:13 17.2 10.3 64 1023.1 13.6 SW 15.2 0.0 0.1
17:14 17.2 10.3 64 1022.9 9.8 S 15.2 0.0 0.1
17:15 17.0 10.1 64 1023.0 13.0 NW 15.2 0.0 0.1
17:16 17.0 10.1 64 1023.1 9.2 N 15.2 0.0 0.1
17:17 17.0 10.1 64 1023.0 9.2 SW 15.2 0.0 0.1
17:19 16.8 10.2 65 1023.0 9.8 SW 14.5 0.0 0.1
17:20 16.8 10.2 65 1022.9 13.6 SW 14.5 0.0 0.1
17:21 16.8 10.2 65 1023.0 12.1 NW 13.6 0.0 0.1
17:22 16.7 10.1 65 1023.0 8.3 WSW 13.6 0.0 0.1
17:23 16.7 10.1 65 1023.0 12.1 SW 13.6 0.0 0.1
17:24 16.6 10.0 65 1023.1 10.7 SW 13.6 0.0 0.1
17:25 16.6 10.0 65 1023.1 8.3 NW 13.6 0.0 0.1
17:26 16.6 10.0 65 1022.9 12.1 SW 13.6 0.0 0.1
17:27 16.5 9.9 65 1023.0 10.7 W 13.6 0.0 0.1
17:28 16.5 9.9 65 1023.1 11.4 SW 13.6 0.0 0.1
17:29 16.5 9.9 65 1023.1 10.7 SW 13.6 0.0 0.1
17:30 16.5 10.1 66 1023.1 13.6 SW 13.6 0.0 0.1
17:31 16.5 10.4 67 1023.1 9.8 SW 13.6 0.0 0.1
17:33 16.6 10.7 68 1023.1 13.0 SW 13.6 0.0 0.1
17:34 16.6 10.7 68 1022.9 9.8 SW 13.6 0.0 0.1
17:35 16.7 11.0 69 1023.0 8.3 NW 13.6 0.0 0.1
17:36 16.8 11.1 69 1023.1 9.8 SW 13.6 0.0 0.1
17:37 16.9 11.0 68 1022.9 10.7 NW 13.6 0.0 0.1
17:38 16.9 11.0 68 1023.0 13.6 SW 13.6 0.0 0.1
17:39 17.0 11.1 68 1023.0 10.7 SW 13.6 0.0 0.1
17:40 17.0 10.8 67 1023.0 11.4 SW 13.6 0.0 0.1
17:41 17.1 10.9 67 1023.2 13.0 SW 13.6 0.0 0.1
17:42 17.1 10.7 66 1023.2 9.8 S 13.6 0.0 0.1
17:43 17.1 10.9 67 1023.0 10.7 SW 13.6 0.0 0.1
17:44 17.1 10.7 66 1023.1 9.8 SW 13.6 0.0 0.1
17:45 17.1 10.7 66 1023.0 12.1 W 13.6 0.0 0.1
17:47 17.2 10.8 66 1023.1 13.6 SW 13.6 0.0 0.1
17:48 17.2 10.8 66 1023.3 12.1 SW 13.6 0.0 0.1
17:49 17.2 10.8 66 1023.1 7.6 N 13.6 0.0 0.1
17:50 17.2 11.0 67 1023.2 8.3 SW 13.6 0.0 0.1
17:51 17.2 11.0 67 1023.2 11.4 SW 13.6 0.0 0.1
17:52 17.2 10.8 66 1023.1 9.8 SW 13.6 0.0 0.1
17:53 17.2 10.8 66 1023.1 8.3 WSW 13.6 0.0 0.1
17:54 17.2 10.8 66 1023.2 6.9 WSW 13.6 0.0 0.1
17:55 17.3 10.9 66 1023.1 9.8 SW 13.6 0.0 0.1
17:56 17.3 10.9 66 1023.2 11.4 NW 13.6 0.0 0.1
17:57 17.2 10.8 66 1023.2 9.8 NW 13.6 0.0 0.1
17:58 17.2 10.8 66 1023.2 11.4 SW 13.0 0.0 0.1
17:59 17.2 10.8 66 1023.3 9.8 W 11.4 0.0 0.1
18:01 17.1 10.7 66 1023.2 6.9 WSW 13.0 0.0 0.1
18:02 17.0 10.8 67 1023.3 8.3 SW 13.0 0.0 0.1
18:03 17.0 10.8 67 1023.2 8.3 SW 13.0 0.0 0.1
18:04 17.0 10.8 67 1023.2 9.2 SW 13.0 0.0 0.1
18:05 16.9 10.7 67 1023.3 12.1 W 13.0 0.0 0.1
18:06 16.9 10.7 67 1023.3 9.8 SW 13.0 0.0 0.1
18:07 16.8 10.6 67 1023.3 7.6 WSW 13.0 0.0 0.1
18:08 16.8 10.6 67 1023.3 9.8 SW 13.0 0.0 0.1
18:09 16.8 10.6 67 1023.3 10.7 SW 13.0 0.0 0.1
18:10 16.8 10.9 68 1023.3 13.6 SW 13.6 0.0 0.1
18:11 16.8 10.9 68 1023.3 9.8 NW 13.6 0.0 0.1
18:12 16.8 10.9 68 1023.1 12.1 W 13.6 0.0 0.1
18:13 16.8 10.9 68 1023.3 13.6 WSW 13.6 0.0 0.1
18:15 16.9 11.0 68 1023.3 13.0 SW 13.6 0.0 0.1
18:16 16.9 11.0 68 1023.3 11.4 SW 13.6 0.0 0.1
18:17 16.9 11.0 68 1023.2 9.2 WSW 13.6 0.0 0.1
18:18 17.0 11.1 68 1023.3 9.8 NW 13.6 0.0 0.1
18:19 17.0 11.1 68 1023.3 9.2 NW 13.6 0.0 0.1
18:20 16.9 11.0 68 1023.3 8.3 SW 13.6 0.0 0.1
18:21 16.9 11.0 68 1023.3 10.7 W 13.6 0.0 0.1
18:22 16.9 11.0 68 1023.3 9.2 SW 13.6 0.0 0.1
18:23 16.8 10.9 68 1023.4 10.7 SW 13.0 0.0 0.1
18:24 16.8 10.9 68 1023.5 9.2 W 13.0 0.0 0.1
18:25 16.7 10.8 68 1023.4 11.4 SW 13.0 0.0 0.1
18:26 16.7 10.8 68 1023.3 13.0 SW 14.5 0.0 0.1
18:27 16.6 10.7 68 1023.5 9.2 NW 14.5 0.0 0.1
18:29 16.5 10.6 68 1023.4 13.6 N 14.5 0.0 0.1
18:30 16.5 10.8 69 1023.4 8.3 SW 14.5 0.0 0.1
18:31 16.5 10.8 69 1023.6 9.2 SW 14.5 0.0 0.1
18:32 16.5 10.8 69 1023.4 11.4 SW 14.5 0.0 0.1
18:33 16.5 10.8 69 1023.3 14.5 N 14.5 0.0 0.1
18:34 16.5 10.8 69 1023.4 13.0 SW 14.5 0.0 0.1
18:35 16.5 10.8 69 1023.6 9.8 W 14.5 0.0 0.1
18:36 16.4 10.7 69 1023.5 9.2 W 14.5 0.0 0.1
18:37 16.4 10.7 69 1023.5 9.8 SW 14.5 0.0 0.1
18:38 16.4 10.7 69 1023.6 9.2 SW 14.5 0.0 0.1
18:39 16.4 10.7 69 1023.5 11.4 SW 14.5 0.0 0.1
18:40 16.3 10.6 69 1023.4 8.3 WNW 14.5 0.0 0.1
18:41 16.3 10.6 69 1023.4 7.6 SW 14.5 0.0 0.1
18:42 16.2 10.5 69 1023.4 12.1 W 14.5 0.0 0.1
18:44 16.2 10.7 70 1023.4 9.2 NW 13.0 0.0 0.1
18:45 16.1 10.6 70 1023.5 9.8 S 12.1 0.0 0.1
18:46 16.0 10.5 70 1023.5 7.6 W 12.1 0.0 0.1
18:47 16.0 10.5 70 1023.5 8.3 NW 12.1 0.0 0.1
18:48 15.9 10.4 70 1023.5 9.8 SW 12.1 0.0 0.1
18:49 15.9 10.4 70 1023.5 6.0 SW 12.1 0.0 0.1
18:50 15.8 10.3 70 1023.4 6.0 SW 12.1 0.0 0.1
18:51 15.8 10.3 70 1023.4 5.4 W 12.1 0.0 0.1
18:52 15.8 10.6 71 1023.5 6.0 SW 12.1 0.0 0.1
18:53 15.7 10.5 71 1023.5 6.0 WNW 10.7 0.0 0.1
18:54 15.7 10.5 71 1023.4 10.7 SW 10.7 0.0 0.1
18:55 15.7 10.5 71 1023.4 8.3 SW 10.7 0.0 0.1
18:56 15.6 10.4 71 1023.5 12.1 SW 12.1 0.0 0.1
18:58 15.5 10.5 72 1023.4 8.3 WSW 12.1 0.0 0.1
18:59 15.5 10.5 72 1023.4 8.3 W 12.1 0.0 0.1
19:00 15.4 10.4 72 1023.4 9.2 N 12.1 0.0 0.1
19:01 15.4 10.4 72 1023.4 7.6 SW 12.1 0.0 0.1
19:02 15.4 10.4 72 1023.3 8.3 WSW 12.1 0.0 0.1
19:03 15.4 10.4 72 1023.4 8.3 SW 12.1 0.0 0.1
19:04 15.4 10.6 73 1023.3 6.9 S 12.1 0.0 0.1
19:05 15.4 10.6 73 1023.5 3.8 WSW 12.1 0.0 0.1
19:06 15.4 10.6 73 1023.5 6.9 W 12.1 0.0 0.1
19:07 15.4 10.6 73 1023.4 4.5 SW 9.2 0.0 0.1
19:08 15.4 10.6 73 1023.3 7.6 NW 9.2 0.0 0.1
19:09 15.4 10.6 73 1023.4 7.6 SW 9.2 0.0 0.1
19:10 15.4 10.6 73 1023.4 6.9 W 9.2 0.0 0.1
19:11 15.4 10.8 74 1023.4 6.0 S 8.3 0.0 0.1
19:12 15.4 10.8 74 1023.4 8.3 W 8.3 0.0 0.1
19:13 15.5 10.9 74 1023.4 9.2 SW 9.2 0.0 0.1
19:14 15.5 10.9 74 1023.4 7.6 SW 9.2 0.0 0.1
19:15 15.5 10.9 74 1023.4 6.0 S 9.2 0.0 0.1
19:16 15.5 10.9 74 1023.4 5.4 SW 9.2 0.0 0.1
19:18 15.5 10.9 74 1023.5 5.4 SSW 9.2 0.0 0.1
19:19 15.5 10.9 74 1023.5 8.3 SW 9.2 0.0 0.1
19:20 15.5 10.9 74 1023.4 7.6 W 9.2 0.0 0.1
19:21 15.5 10.9 74 1023.5 8.3 SW 9.2 0.0 0.1
19:22 15.5 10.9 74 1023.5 8.3 SW 9.2 0.0 0.1
19:23 15.5 10.9 74 1023.6 8.3 SSW 8.3 0.0 0.1
19:24 15.4 11.0 75 1023.4 9.2 SW 9.8 0.0 0.1
19:25 15.4 11.0 75 1023.6 6.0 SW 9.8 0.0 0.1
19:26 15.4 11.0 75 1023.4 6.0 SW 9.8 0.0 0.1
19:27 15.4 11.0 75 1023.4 8.3 SW 9.8 0.0 0.1
19:28 15.4 11.0 75 1023.4 9.8 W 9.8 0.0 0.1
19:29 15.3 10.9 75 1023.4 7.6 SW 9.8 0.0 0.1
19:30 15.3 10.9 75 1023.4 11.4 SW 11.4 0.0 0.1
19:32 15.2 10.8 75 1023.4 8.3 SW 11.4 0.0 0.1
19:33 15.2 10.8 75 1023.4 6.9 S 11.4 0.0 0.1
19:34 15.1 10.7 75 1023.4 6.0 S 11.4 0.0 0.1
19:35 15.1 10.7 75 1023.5 9.2 S 11.4 0.0 0.1
19:36 15.0 10.6 75 1023.6 6.0 W 11.4 0.0 0.1
19:37 15.0 10.6 75 1023.4 6.9 S 11.4 0.0 0.1
19:38 15.0 10.6 75 1023.5 8.3 SW 11.4 0.0 0.1
19:39 15.0 10.8 76 1023.5 7.6 SW 11.4 0.0 0.1
19:40 14.9 10.7 76 1023.5 7.6 W 9.2 0.0 0.1
19:41 14.9 10.7 76 1023.5 7.6 W 9.2 0.0 0.1
19:42 14.9 10.7 76 1023.6 7.6 W 9.2 0.0 0.1
19:43 14.8 10.6 76 1023.5 6.0 SW 9.2 0.0 0.1
19:44 14.8 10.6 76 1023.6 5.4 W 9.2 0.0 0.1
19:45 14.8 10.6 76 1023.5 7.6 SW 9.2 0.0 0.1
19:47 14.6 10.4 76 1023.5 6.0 N 8.3 0.0 0.1
19:48 14.6 10.4 76 1023.5 6.9 SW 8.3 0.0 0.1
19:49 14.6 10.4 76 1023.7 8.3 SW 8.3 0.0 0.1
19:50 14.5 10.3 76 1023.6 6.0 SW 8.3 0.0 0.1
19:51 14.5 10.3 76 1023.6 5.4 SW 8.3 0.0 0.1
19:52 14.4 10.4 77 1023.7 6.0 W 8.3 0.0 0.1
19:53 14.4 10.4 77 1023.7 4.5 SW 8.3 0.0 0.1
19:54 14.4 10.4 77 1023.7 4.5 SW 8.3 0.0 0.1
19:55 14.4 10.4 77 1023.6 5.4 S 8.3 0.0 0.1
19:56 14.3 10.3 77 1023.7 4.5 SW 8.3 0.0 0.1
19:57 14.3 10.3 77 1023.7 4.5 SW 8.3 0.0 0.1
19:58 14.3 10.3 77 1023.6 4.5 SW 8.3 0.0 0.1
19:59 14.3 10.3 77 1023.8 7.6 NW 8.3 0.0 0.1
20:01 14.2 10.2 77 1023.6 6.0 SW 7.6 0.0 0.1
20:02 14.2 10.2 77 1023.7 6.0 WSW 7.6 0.0 0.1
20:03 14.1 10.1 77 1023.7 5.4 S 7.6 0.0 0.1
20:04 14.1 10.1 77 1023.8 5.4 WSW 7.6 0.0 0.1
20:05 14.1 10.1 77 1023.8 5.4 WSW 7.6 0.0 0.1
20:06 14.1 10.1 77 1023.8 5.4 WSW 7.6 0.0 0.1
20:07 14.1 10.1 77 1023.8 5.4 WSW 7.6 0.0 0.1
20:08 14.1 10.1 77 1023.8 5.4 WSW 7.6 0.0 0.1
20:09 14.1 10.1 77 1023.7 5.4 WSW 7.6 0.0 0.1
20:10 14.1 10.1 77 1023.7 5.4 WSW 6.0 0.0 0.1
20:11 13.9 10.1 78 1023.8 4.5 WSW 6.0 0.0 0.1
20:12 13.9 10.1 78 1023.9 4.5 SW 6.0 0.0 0.1
20:13 13.8 10.0 78 1023.8 5.4 WSW 5.4 0.0 0.1
20:15 13.8 10.0 78 1023.8 6.0 SW 6.0 0.0 0.1
20:16 13.7 9.9 78 1023.8 4.5 SW 6.0 0.0 0.1
20:17 13.7 10.1 79 1023.9 5.4 SW 6.9 0.0 0.1
20:18 13.7 10.1 79 1023.9 5.4 SW 6.9 0.0 0.1
20:19 13.6 10.0 79 1023.9 5.4 SW 6.9 0.0 0.1
20:20 13.6 10.0 79 1023.8 5.4 SW 6.9 0.0 0.1
20:21 13.6 10.0 79 1023.8 3.8 SW 6.9 0.0 0.1
20:22 13.6 10.0 79 1023.8 4.5 SW 6.9 0.0 0.1
20:23 13.5 9.9 79 1023.7 4.5 SW 6.9 0.0 0.1
20:24 13.5 9.9 79 1023.7 3.8 S 6.9 0.0 0.1
20:25 13.5 9.9 79 1023.8 3.8 W 6.9 0.0 0.1
20:26 13.5 9.9 79 1023.8 3.8 W 6.9 0.0 0.1
20:27 13.4 9.8 79 1023.8 7.6 SW 7.6 0.0 0.1
20:28 13.4 9.8 79 1023.9 6.9 WSW 7.6 0.0 0.1
20:30 13.4 10.0 80 1023.8 4.5 SW 7.6 0.0 0.1
20:31 13.3 9.9 80 1023.7 3.8 WSW 7.6 0.0 0.1
20:32 13.3 9.9 80 1023.9 5.4 SW 7.6 0.0 0.1
20:33 13.3 9.9 80 1024.0 4.5 SW 7.6 0.0 0.1
20:34 13.3 9.9 80 1023.9 3.8 S 7.6 0.0 0.1
20:35 13.2 9.8 80 1023.9 4.5 W 7.6 0.0 0.1
20:36 13.2 9.8 80 1023.9 4.5 SW 7.6 0.0 0.1
20:37 13.2 9.8 80 1023.8 5.4 NW 6.9 0.0 0.1
20:38 13.2 9.8 80 1024.0 3.8 NW 5.4 0.0 0.1
20:39 13.2 9.8 80 1024.0 3.8 W 5.4 0.0 0.1
20:40 13.2 10.0 81 1023.9 3.8 SW 5.4 0.0 0.1
20:41 13.1 9.9 81 1024.0 6.0 SW 6.0 0.0 0.1
20:42 13.2 10.0 81 1023.9 5.4 W 6.0 0.0 0.1
20:43 13.1 9.9 81 1023.9 4.5 SW 6.0 0.0 0.1
20:44 13.1 9.9 81 1024.0 4.5 W 6.0 0.0 0.1
20:45 13.1 9.9 81 1024.1 4.5 SW 6.0 0.0 0.1
20:46 13.1 9.9 81 1024.0 3.1 W 6.0 0.0 0.1
20:48 13.0 9.8 81 1024.0 5.4 W 6.0 0.0 0.1
20:49 13.0 9.8 81 1024.0 3.8 W 6.0 0.0 0.1
20:50 13.0 9.8 81 1024.1 4.5 NW 6.0 0.0 0.1
20:51 13.0 9.8 81 1024.1 4.5 SW 5.4 0.0 0.1
20:52 13.0 10.0 82 1023.9 3.1 SW 5.4 0.0 0.1
20:53 13.0 10.0 82 1024.0 3.1 SW 5.4 0.0 0.1
20:54 13.0 10.0 82 1024.0 3.1 SW 5.4 0.0 0.1
20:55 13.0 10.0 82 1024.0 4.5 SW 5.4 0.0 0.1
20:56 12.9 9.9 82 1024.1 5.4 SW 5.4 0.0 0.1
20:57 12.9 9.9 82 1024.0 4.5 SE 5.4 0.0 0.1
20:58 12.9 9.9 82 1024.0 3.1 W 5.4 0.0 0.1
20:59 13.0 10.0 82 1024.1 4.5 SW 5.4 0.0 0.1
21:00 12.9 9.9 82 1024.1 3.1 SW 5.4 0.0 0.1
21:01 12.9 9.9 82 1024.1 3.1 SW 5.4 0.0 0.1
21:02 12.9 9.9 82 1024.1 3.8 SSW 5.4 0.0 0.1
21:03 12.9 9.9 82 1024.0 3.1 SW 5.4 0.0 0.1
21:04 13.0 10.0 82 1024.0 3.8 SW 5.4 0.0 0.1
21:05 12.9 10.1 83 1024.1 3.1 W 5.4 0.0 0.1
21:06 12.9 10.1 83 1024.1 5.4 S 5.4 0.0 0.1
21:07 13.0 10.2 83 1024.1 5.4 S 5.4 0.0 0.1
21:09 13.0 10.2 83 1024.0 6.0 W 6.0 0.0 0.0
21:10 13.0 10.2 83 1024.0 6.0 W 6.9 0.0 0.1
21:11 13.0 10.2 83 1024.0 6.0 S 6.9 0.0 0.1
21:12 13.0 10.2 83 1024.1 6.9 SW 6.9 0.0 0.1
21:13 13.0 10.4 84 1024.1 8.3 SW 8.3 0.0 0.1
21:14 13.1 10.5 84 1024.0 6.9 SW 8.3 0.0 0.1
21:16 13.1 10.5 84 1024.2 6.0 WSW 8.3 0.0 0.1
21:17 13.1 10.5 84 1024.2 7.6 SW 8.3 0.0 0.1
21:18 13.1 10.5 84 1024.2 7.6 SW 8.3 0.0 0.1
21:19 13.2 10.6 84 1024.2 6.9 SW 8.3 0.0 0.1
21:20 13.1 10.5 84 1024.2 6.9 W 8.3 0.0 0.1
21:21 13.2 10.7 85 1024.3 8.3 SW 8.3 0.0 0.1
21:22 13.2 10.7 85 1024.2 6.9 SW 8.3 0.0 0.1
21:23 13.2 10.7 85 1024.2 6.0 W 8.3 0.0 0.1
21:24 13.2 10.7 85 1024.1 8.3 S 9.8 0.0 0.1
21:25 13.2 10.7 85 1024.2 6.0 SW 9.8 0.0 0.1
21:26 13.2 10.7 85 1024.3 6.0 SW 9.8 0.0 0.1
21:28 13.3 10.8 85 1024.2 6.9 SW 9.8 0.0 0.1
21:29 13.3 10.8 85 1024.2 6.0 W 9.8 0.0 0.1
21:30 13.2 10.7 85 1024.1 5.4 NW 9.8 0.0 0.1
21:31 13.3 10.8 85 1024.2 3.8 S 9.8 0.0 0.1
21:32 13.3 10.8 85 1024.3 5.4 SW 9.8 0.0 0.1
21:33 13.3 10.8 85 1024.3 6.0 SW 9.8 0.0 0.1
21:34 13.3 10.8 85 1024.4 4.5 SW 8.3 0.0 0.1
21:35 13.3 10.8 85 1024.3 5.4 W 6.9 0.0 0.1
21:36 13.3 10.8 85 1024.2 4.5 S 6.9 0.0 0.1
21:37 13.3 10.8 85 1024.3 6.0 S 6.9 0.0 0.1
21:38 13.3 10.8 85 1024.3 3.8 W 6.9 0.0 0.1
21:40 13.3 10.8 85 1024.2 3.1 N 6.0 0.0 0.1
21:41 13.3 10.8 85 1024.1 4.5 SW 6.0 0.0 0.1
21:42 13.3 10.8 85 1024.3 6.9 SW 6.9 0.0 0.1
21:43 13.3 10.8 85 1024.3 3.8 SW 6.9 0.0 0.1
21:44 13.3 10.8 85 1024.3 6.9 WSW 6.9 0.0 0.1
21:45 13.3 10.8 85 1024.4 6.9 S 6.9 0.0 0.1
21:46 13.3 10.8 85 1024.2 4.5 SW 6.9 0.0 0.1
21:47 13.3 10.8 85 1024.3 5.4 NNW 6.9 0.0 0.1
21:48 13.3 10.8 85 1024.3 5.4 NW 6.9 0.0 0.1
21:49 13.3 10.8 85 1024.3 5.4 NW 6.9 0.0 0.1
21:50 13.3 10.8 85 1024.4 6.0 NW 6.9 0.0 0.1
21:51 13.3 11.0 86 1024.2 4.5 SW 6.9 0.0 0.1
21:52 13.3 11.0 86 1024.2 5.4 SW 6.9 0.0 0.1
21:53 13.3 11.0 86 1024.4 7.6 SW 7.6 0.0 0.1
21:54 13.3 11.0 86 1024.3 5.4 W 7.6 0.0 0.1
21:55 13.3 11.0 86 1024.3 6.0 W 7.6 0.0 0.1
21:56 13.3 11.0 86 1024.3 4.5 W 7.6 0.0 0.1
21:57 13.3 11.0 86 1024.3 5.4 SW 7.6 0.0 0.1
21:59 13.3 11.0 86 1024.4 4.5 S 7.6 0.0 0.1
22:00 13.3 11.0 86 1024.2 3.1 SW 7.6 0.0 0.1
22:01 13.3 11.0 86 1024.4 3.8 W 7.6 0.0 0.1
22:02 13.4 11.1 86 1024.4 5.4 SW 7.6 0.0 0.1
22:03 13.3 11.0 86 1024.3 5.4 SW 6.0 0.0 0.1
22:04 13.4 11.1 86 1024.4 3.8 SSW 6.0 0.0 0.1
22:05 13.4 11.1 86 1024.3 3.8 SSW 5.4 0.0 0.1
22:06 13.4 11.1 86 1024.3 5.4 SW 5.4 0.0 0.1
22:07 13.4 11.1 86 1024.4 4.5 SW 5.4 0.0 0.1
22:08 13.3 11.2 87 1024.5 3.8 SW 5.4 0.0 0.1
22:09 13.3 11.2 87 1024.3 6.0 SW 6.0 0.0 0.1
22:10 13.3 11.2 87 1024.5 5.4 W 6.9 0.0 0.1
22:11 13.3 11.2 87 1024.4 3.8 SW 6.9 0.0 0.1
22:12 13.4 11.3 87 1024.5 3.8 SW 6.9 0.0 0.1
22:13 13.4 11.3 87 1024.4 4.5 W 6.9 0.0 0.1
22:14 13.4 11.3 87 1024.5 6.0 W 6.9 0.0 0.1
22:15 13.4 11.3 87 1024.4 4.5 W 6.9 0.0 0.1
22:16 13.4 11.3 87 1024.5 3.8 W 6.9 0.0 0.1
22:18 13.3 11.2 87 1024.5 4.5 NW 6.9 0.0 0.1
22:19 13.3 11.2 87 1024.4 3.8 WSW 6.9 0.0 0.1
22:20 13.3 11.2 87 1024.5 6.9 SSW 6.9 0.0 0.1
22:21 13.3 11.2 87 1024.4 4.5 W 6.9 0.0 0.1
22:22 13.3 11.2 87 1024.3 4.5 SW 6.9 0.0 0.1
22:23 13.3 11.2 87 1024.3 3.8 S 6.9 0.0 0.1
22:24 13.2 11.1 87 1024.4 4.5 SW 6.9 0.0 0.1
22:25 13.2 11.1 87 1024.4 5.4 SW 6.9 0.0 0.1
22:26 13.2 11.1 87 1024.3 4.5 SW 6.9 0.0 0.1
22:27 13.2 11.1 87 1024.4 3.8 SW 6.9 0.0 0.1
22:28 13.2 11.1 87 1024.6 3.8 SW 6.9 0.0 0.1
22:29 13.1 11.0 87 1024.5 3.8 SW 6.9 0.0 0.1
22:30 13.1 11.0 87 1024.4 3.8 NW 6.9 0.0 0.1
22:31 13.1 11.0 87 1024.6 4.5 SW 5.4 0.0 0.1
22:32 13.1 11.0 87 1024.5 3.8 SW 5.4 0.0 0.1
22:33 13.1 11.0 87 1024.4 3.1 W 5.4 0.0 0.1
22:34 13.0 10.9 87 1024.6 3.1 SW 5.4 0.0 0.1
22:35 13.0 10.9 87 1024.5 3.1 S 5.4 0.0 0.1
22:37 13.0 10.9 87 1024.5 2.2 W 5.4 0.0 0.1
22:38 12.9 10.8 87 1024.5 2.2 SW 5.4 0.0 0.1
22:39 12.9 10.8 87 1024.5 3.8 SW 5.4 0.0 0.1
22:40 12.9 10.8 87 1024.5 3.1 SW 4.5 0.0 0.1
22:41 12.9 10.8 87 1024.6 2.2 SW 3.8 0.0 0.1
22:42 12.8 10.7 87 1024.6 2.2 SW 3.8 0.0 0.1
22:43 12.8 10.7 87 1024.6 3.1 SW 3.8 0.0 0.1
22:44 12.8 10.7 87 1024.5 2.2 SW 3.8 0.0 0.1
22:45 12.7 10.6 87 1024.4 3.1 SSW 3.8 0.0 0.1
22:46 12.7 10.6 87 1024.4 3.1 SSW 3.8 0.0 0.1
22:47 12.7 10.6 87 1024.5 3.8 SW 3.8 0.0 0.1
22:48 12.7 10.6 87 1024.4 3.8 SW 3.8 0.0 0.1
22:49 12.6 10.5 87 1024.4 2.2 S 3.8 0.0 0.1
22:50 12.6 10.5 87 1024.4 3.1 SW 3.8 0.0 0.1
22:51 12.6 10.5 87 1024.5 3.1 SW 3.8 0.0 0.1
22:52 12.6 10.5 87 1024.6 3.1 SW 3.8 0.0 0.1
22:53 12.6 10.5 87 1024.6 3.1 SW 3.8 0.0 0.1
22:54 12.5 10.4 87 1024.6 2.2 SW 3.8 0.0 0.1
22:55 12.5 10.4 87 1024.5 2.2 SW 3.8 0.0 0.1
22:56 12.5 10.4 87 1024.6 2.2 SW 3.8 0.0 0.1
22:57 12.5 10.4 87 1024.7 2.2 SW 3.8 0.0 0.1
22:58 12.5 10.4 87 1024.7 2.2 SW 3.1 0.0 0.1
22:59 12.5 10.4 87 1024.8 2.2 SW 3.1 0.0 0.1
23:00 12.4 10.3 87 1024.7 2.2 SW 3.1 0.0 0.1
23:01 12.4 10.3 87 1024.6 2.2 SW 3.1 0.0 0.1
23:02 12.4 10.3 87 1024.8 2.2 SW 3.1 0.0 0.1
23:03 12.4 10.3 87 1024.7 2.2 SW 2.2 0.0 0.1
23:04 12.4 10.3 87 1024.5 2.2 W 2.2 0.0 0.1
23:05 12.4 10.3 87 1024.6 3.1 SW 3.1 0.0 0.1
23:06 12.4 10.3 87 1024.6 3.1 SW 3.1 0.0 0.1
23:07 12.4 10.3 87 1024.5 3.1 SW 3.1 0.0 0.1
23:08 12.4 10.3 87 1024.6 3.1 SW 3.1 0.0 0.1
23:09 12.4 10.3 87 1024.6 3.8 SW 3.8 0.0 0.1
23:10 12.4 10.3 87 1024.6 2.2 W 3.8 0.0 0.1
23:11 12.3 10.2 87 1024.6 2.2 SW 3.8 0.0 0.1
23:12 12.3 10.2 87 1024.7 3.1 ENE 3.8 0.0 0.1
23:13 12.3 10.2 87 1024.5 1.6 S 3.8 0.0 0.1
23:14 12.3 10.2 87 1024.7 2.2 SW 3.8 0.0 0.1
23:15 12.3 10.2 87 1024.8 3.1 SW 3.8 0.0 0.1
23:16 12.3 10.4 88 1024.6 2.2 SW 3.8 0.0 0.1
23:17 12.3 10.4 88 1024.6 2.2 SW 3.8 0.0 0.1
23:18 12.2 10.3 88 1024.7 0.7 SW 3.8 0.0 0.1
23:19 12.2 10.3 88 1024.7 1.6 SW 3.8 0.0 0.1
23:20 12.2 10.1 87 1024.7 0.7 NW 3.8 0.0 0.1
23:21 12.2 10.3 88 1024.6 1.6 SW 3.8 0.0 0.1
23:22 12.2 10.3 88 1024.7 1.6 SW 3.8 0.0 0.1
23:23 12.2 10.3 88 1024.6 1.6 SW 3.8 0.0 0.1
23:24 12.2 10.3 88 1024.8 1.6 S 3.8 0.0 0.1
23:25 12.2 10.3 88 1024.6 2.2 S 3.8 0.0 0.1
23:26 12.2 10.3 88 1024.8 3.1 NW 3.1 0.0 0.1
23:28 12.2 10.3 88 1024.5 1.6 SW 4.5 0.0 0.1
23:29 12.1 10.2 88 1024.5 1.6 SW 4.5 0.0 0.1
23:30 12.1 10.2 88 1024.6 0.7 SW 4.5 0.0 0.1
23:31 12.1 10.2 88 1024.8 2.2 WSW 4.5 0.0 0.1
23:32 12.1 10.2 88 1024.5 2.2 W 4.5 0.0 0.1
23:33 12.0 10.1 88 1024.7 2.2 WSW 4.5 0.0 0.1
23:34 12.0 10.1 88 1024.7 2.2 WSW 4.5 0.0 0.1
23:35 12.0 10.1 88 1024.6 2.2 WSW 4.5 0.0 0.1
23:36 12.0 10.1 88 1024.7 2.2 W 4.5 0.0 0.1
23:37 12.0 10.1 88 1024.6 2.2 SW 4.5 0.0 0.1
23:38 12.0 10.1 88 1024.5 2.2 SW 2.2 0.0 0.1
23:39 11.9 10.0 88 1024.5 1.6 SW 2.2 0.0 0.1
23:40 11.9 10.0 88 1024.6 2.2 SW 2.2 0.0 0.1
23:41 11.9 10.0 88 1024.5 2.2 W 2.2 0.0 0.1
23:42 11.9 10.0 88 1024.5 2.2 SW 2.2 0.0 0.1
23:43 11.9 10.0 88 1024.6 2.2 SW 2.2 0.0 0.1
23:44 11.9 10.0 88 1024.6 2.2 WSW 2.2 0.0 0.1
23:46 11.8 9.9 88 1024.5 3.1 SW 3.1 0.0 0.1
23:47 11.8 9.9 88 1024.6 2.2 W 3.1 0.0 0.1
23:48 11.8 9.9 88 1024.5 3.1 WSW 3.1 0.0 0.1
23:49 11.8 9.9 88 1024.5 3.1 W 3.1 0.0 0.1
23:50 11.8 9.9 88 1024.5 3.1 W 3.1 0.0 0.1
23:51 11.8 9.9 88 1024.6 3.8 W 3.8 0.0 0.1
23:52 11.8 9.9 88 1024.6 3.1 SW 3.8 0.0 0.1
23:53 11.8 9.9 88 1024.5 4.5 SW 4.5 0.0 0.1
23:54 11.8 9.9 88 1024.5 4.5 SW 4.5 0.0 0.1
23:55 11.8 10.0 89 1024.5 3.1 W 4.5 0.0 0.1
23:56 11.8 10.0 89 1024.5 3.1 SW 4.5 0.0 0.1
23:57 11.8 10.0 89 1024.6 3.1 W 4.5 0.0 0.1
23:58 11.8 10.0 89 1024.8 3.1 SW 4.5 0.0 0.1
23:59 11.8 10.0 89 1024.5 2.2 SW 4.5 0.0 0.1

UK - WEATHER STATION TOPSITES - UK World Weather Websites

This is a private weather station, never base important decisions or events on data from this weather station. Although every effort has been made to make the data as accurate as possible it does not meet MetOffice standards. It is proved as a guide of local weather conditions. We accept no liability for any loss which may arise from use of the data.

Copyright © Carnkie Weather 2009 - 2018.